<?xml version="1.0" encoding="UTF-8" standalone="no" ?>
<gpx xmlns="http://www.topografix.com/GPX/1/1" xmlns:xsi="http://www.w3.org/2001/XMLSchema-instance" xsi:schemaLocation="http://www.topografix.com/GPX/1/1 http://www.topografix.com/GPX/1/1/gpx.xsd" version="1.1" creator="VisuGPX - https://www.visugpx.com">
  <metadata>
    <name>Col de Chaudin (par le lac de Tanay)</name>
    <desc><![CDATA[Col de Chaudin (Chablais, Valais, Suisse) : Montée par versant N, descente par versant S puis vallon de Verne
AD- / S3]]></desc>
  </metadata>
  <trk>
    <name><![CDATA[Move]]></name>
    <trkseg>
      <trkpt lat="46.33848" lon="6.84812">
        <ele>1103.6530438985</ele>
        <time>2015-03-06T07:37:22.390Z</time>
      </trkpt>
      <trkpt lat="46.33837" lon="6.84817">
        <ele>1097</ele>
        <time>2015-03-06T07:37:39.290Z</time>
      </trkpt>
      <trkpt lat="46.33827" lon="6.8482">
        <ele>1092.7000064</ele>
        <time>2015-03-06T07:37:54.290Z</time>
      </trkpt>
      <trkpt lat="46.33817" lon="6.84818">
        <ele>1083.6</ele>
        <time>2015-03-06T07:38:26.390Z</time>
      </trkpt>
      <trkpt lat="46.33808" lon="6.84814">
        <ele>1083</ele>
        <time>2015-03-06T07:38:41.390Z</time>
      </trkpt>
      <trkpt lat="46.33799" lon="6.8481">
        <ele>1083</ele>
        <time>2015-03-06T07:38:52.390Z</time>
      </trkpt>
      <trkpt lat="46.33791" lon="6.84801">
        <ele>1088</ele>
        <time>2015-03-06T07:39:08.390Z</time>
      </trkpt>
      <trkpt lat="46.33786" lon="6.84794">
        <ele>1089</ele>
        <time>2015-03-06T07:39:18.390Z</time>
      </trkpt>
      <trkpt lat="46.3378" lon="6.84786">
        <ele>1089</ele>
        <time>2015-03-06T07:39:28.390Z</time>
      </trkpt>
      <trkpt lat="46.3378" lon="6.84772">
        <ele>1089</ele>
        <time>2015-03-06T07:39:44.390Z</time>
      </trkpt>
      <trkpt lat="46.33778" lon="6.84757">
        <ele>1095</ele>
        <time>2015-03-06T07:40:01.390Z</time>
      </trkpt>
      <trkpt lat="46.33777" lon="6.84743">
        <ele>1098</ele>
        <time>2015-03-06T07:40:15.390Z</time>
      </trkpt>
      <trkpt lat="46.33772" lon="6.84729">
        <ele>1101.4</ele>
        <time>2015-03-06T07:40:32.390Z</time>
      </trkpt>
      <trkpt lat="46.33763" lon="6.84721">
        <ele>1106.4</ele>
        <time>2015-03-06T07:40:48.390Z</time>
      </trkpt>
      <trkpt lat="46.33754" lon="6.84714">
        <ele>1110</ele>
        <time>2015-03-06T07:41:05.390Z</time>
      </trkpt>
      <trkpt lat="46.33745" lon="6.84707">
        <ele>1114</ele>
        <time>2015-03-06T07:41:21.390Z</time>
      </trkpt>
      <trkpt lat="46.33737" lon="6.84699">
        <ele>1117</ele>
        <time>2015-03-06T07:41:37.390Z</time>
      </trkpt>
      <trkpt lat="46.3373" lon="6.84688">
        <ele>1117</ele>
        <time>2015-03-06T07:41:55.390Z</time>
      </trkpt>
      <trkpt lat="46.33724" lon="6.84676">
        <ele>1116.6</ele>
        <time>2015-03-06T07:42:10.390Z</time>
      </trkpt>
      <trkpt lat="46.3372" lon="6.84663">
        <ele>1116</ele>
        <time>2015-03-06T07:42:25.390Z</time>
      </trkpt>
      <trkpt lat="46.33713" lon="6.84652">
        <ele>1119.4</ele>
        <time>2015-03-06T07:42:39.390Z</time>
      </trkpt>
      <trkpt lat="46.33706" lon="6.84641">
        <ele>1124.3960408587</ele>
        <time>2015-03-06T07:42:55.390Z</time>
      </trkpt>
      <trkpt lat="46.33701" lon="6.84633">
        <ele>1126.4</ele>
        <time>2015-03-06T07:43:05.390Z</time>
      </trkpt>
      <trkpt lat="46.33694" lon="6.84623">
        <ele>1130.4</ele>
        <time>2015-03-06T07:43:21.390Z</time>
      </trkpt>
      <trkpt lat="46.33687" lon="6.84614">
        <ele>1134</ele>
        <time>2015-03-06T07:43:37.390Z</time>
      </trkpt>
      <trkpt lat="46.33682" lon="6.84604">
        <ele>1136</ele>
        <time>2015-03-06T07:43:52.390Z</time>
      </trkpt>
      <trkpt lat="46.33675" lon="6.84596">
        <ele>1139</ele>
        <time>2015-03-06T07:44:06.290Z</time>
      </trkpt>
      <trkpt lat="46.3367" lon="6.84594">
        <ele>1140</ele>
        <time>2015-03-06T07:44:13.290Z</time>
      </trkpt>
      <trkpt lat="46.33667" lon="6.84588">
        <ele>1142</ele>
        <time>2015-03-06T07:44:21.290Z</time>
      </trkpt>
      <trkpt lat="46.33659" lon="6.84583">
        <ele>1144</ele>
        <time>2015-03-06T07:44:36.290Z</time>
      </trkpt>
      <trkpt lat="46.33666" lon="6.84571">
        <ele>1148</ele>
        <time>2015-03-06T07:45:08.290Z</time>
      </trkpt>
      <trkpt lat="46.33676" lon="6.84569">
        <ele>1149</ele>
        <time>2015-03-06T07:45:25.290Z</time>
      </trkpt>
      <trkpt lat="46.33682" lon="6.84568">
        <ele>1150</ele>
        <time>2015-03-06T07:45:36.290Z</time>
      </trkpt>
      <trkpt lat="46.33689" lon="6.84565">
        <ele>1150</ele>
        <time>2015-03-06T07:45:44.290Z</time>
      </trkpt>
      <trkpt lat="46.33695" lon="6.84563">
        <ele>1151</ele>
        <time>2015-03-06T07:45:51.290Z</time>
      </trkpt>
      <trkpt lat="46.33702" lon="6.84561">
        <ele>1152</ele>
        <time>2015-03-06T07:45:58.290Z</time>
      </trkpt>
      <trkpt lat="46.33713" lon="6.84564">
        <ele>1154</ele>
        <time>2015-03-06T07:46:12.290Z</time>
      </trkpt>
      <trkpt lat="46.3372" lon="6.84565">
        <ele>1155</ele>
        <time>2015-03-06T07:46:23.290Z</time>
      </trkpt>
      <trkpt lat="46.33727" lon="6.84565">
        <ele>1156</ele>
        <time>2015-03-06T07:46:30.290Z</time>
      </trkpt>
      <trkpt lat="46.33738" lon="6.84565">
        <ele>1157</ele>
        <time>2015-03-06T07:46:42.290Z</time>
      </trkpt>
      <trkpt lat="46.33748" lon="6.84563">
        <ele>1159.2999936</ele>
        <time>2015-03-06T07:46:53.290Z</time>
      </trkpt>
      <trkpt lat="46.33758" lon="6.84564">
        <ele>1163</ele>
        <time>2015-03-06T07:47:13.390Z</time>
      </trkpt>
      <trkpt lat="46.33769" lon="6.84564">
        <ele>1165</ele>
        <time>2015-03-06T07:47:27.390Z</time>
      </trkpt>
      <trkpt lat="46.33779" lon="6.84561">
        <ele>1168</ele>
        <time>2015-03-06T07:47:36.390Z</time>
      </trkpt>
      <trkpt lat="46.33789" lon="6.84565">
        <ele>1169</ele>
        <time>2015-03-06T07:47:50.390Z</time>
      </trkpt>
      <trkpt lat="46.33799" lon="6.8457">
        <ele>1172</ele>
        <time>2015-03-06T07:48:09.390Z</time>
      </trkpt>
      <trkpt lat="46.33809" lon="6.84572">
        <ele>1171</ele>
        <time>2015-03-06T07:48:22.390Z</time>
      </trkpt>
      <trkpt lat="46.33819" lon="6.84572">
        <ele>1173</ele>
        <time>2015-03-06T07:48:35.390Z</time>
      </trkpt>
      <trkpt lat="46.3383" lon="6.84573">
        <ele>1178</ele>
        <time>2015-03-06T07:48:51.390Z</time>
      </trkpt>
      <trkpt lat="46.3384" lon="6.84578">
        <ele>1182</ele>
        <time>2015-03-06T07:49:07.390Z</time>
      </trkpt>
      <trkpt lat="46.33849" lon="6.84585">
        <ele>1183</ele>
        <time>2015-03-06T07:49:20.390Z</time>
      </trkpt>
      <trkpt lat="46.33858" lon="6.84588">
        <ele>1186</ele>
        <time>2015-03-06T07:49:35.390Z</time>
      </trkpt>
      <trkpt lat="46.33868" lon="6.84595">
        <ele>1185.6</ele>
        <time>2015-03-06T07:49:48.390Z</time>
      </trkpt>
      <trkpt lat="46.33875" lon="6.84605">
        <ele>1186</ele>
        <time>2015-03-06T07:50:03.290Z</time>
      </trkpt>
      <trkpt lat="46.33874" lon="6.84621">
        <ele>1187.2999936</ele>
        <time>2015-03-06T07:50:14.290Z</time>
      </trkpt>
      <trkpt lat="46.33873" lon="6.84635">
        <ele>1188.0098978531</ele>
        <time>2015-03-06T07:50:25.990Z</time>
      </trkpt>
      <trkpt lat="46.33883" lon="6.84643">
        <ele>1189</ele>
        <time>2015-03-06T07:50:40.290Z</time>
      </trkpt>
      <trkpt lat="46.33885" lon="6.84666">
        <ele>1194</ele>
        <time>2015-03-06T07:50:56.190Z</time>
      </trkpt>
      <trkpt lat="46.339" lon="6.84663">
        <ele>1196</ele>
        <time>2015-03-06T07:51:08.190Z</time>
      </trkpt>
      <trkpt lat="46.33916" lon="6.84661">
        <ele>1197</ele>
        <time>2015-03-06T07:51:16.190Z</time>
      </trkpt>
      <trkpt lat="46.33912" lon="6.84677">
        <ele>1197</ele>
        <time>2015-03-06T07:51:28.190Z</time>
      </trkpt>
      <trkpt lat="46.33916" lon="6.84697">
        <ele>1199</ele>
        <time>2015-03-06T07:51:48.190Z</time>
      </trkpt>
      <trkpt lat="46.33926" lon="6.84697">
        <ele>1199</ele>
        <time>2015-03-06T07:51:57.290Z</time>
      </trkpt>
      <trkpt lat="46.33936" lon="6.84691">
        <ele>1205.2</ele>
        <time>2015-03-06T07:54:05.190Z</time>
      </trkpt>
      <trkpt lat="46.33945" lon="6.84685">
        <ele>1210</ele>
        <time>2015-03-06T07:54:33.190Z</time>
      </trkpt>
      <trkpt lat="46.33956" lon="6.84683">
        <ele>1215</ele>
        <time>2015-03-06T07:54:49.190Z</time>
      </trkpt>
      <trkpt lat="46.33954" lon="6.84668">
        <ele>1223</ele>
        <time>2015-03-06T07:55:17.190Z</time>
      </trkpt>
      <trkpt lat="46.33945" lon="6.84649">
        <ele>1221</ele>
        <time>2015-03-06T07:55:32.190Z</time>
      </trkpt>
      <trkpt lat="46.33938" lon="6.84637">
        <ele>1222.4</ele>
        <time>2015-03-06T07:55:52.390Z</time>
      </trkpt>
      <trkpt lat="46.33931" lon="6.84623">
        <ele>1221</ele>
        <time>2015-03-06T07:56:04.390Z</time>
      </trkpt>
      <trkpt lat="46.33931" lon="6.84608">
        <ele>1222</ele>
        <time>2015-03-06T07:56:20.400Z</time>
      </trkpt>
      <trkpt lat="46.33924" lon="6.84595">
        <ele>1224</ele>
        <time>2015-03-06T07:56:32.190Z</time>
      </trkpt>
      <trkpt lat="46.33916" lon="6.84585">
        <ele>1228.5940486148</ele>
        <time>2015-03-06T07:56:42.290Z</time>
      </trkpt>
      <trkpt lat="46.33916" lon="6.8457">
        <ele>1232.2</ele>
        <time>2015-03-06T07:56:54.190Z</time>
      </trkpt>
      <trkpt lat="46.33921" lon="6.84553">
        <ele>1233</ele>
        <time>2015-03-06T07:57:10.190Z</time>
      </trkpt>
      <trkpt lat="46.33913" lon="6.84536">
        <ele>1235</ele>
        <time>2015-03-06T07:57:35.390Z</time>
      </trkpt>
      <trkpt lat="46.33911" lon="6.8452">
        <ele>1236</ele>
        <time>2015-03-06T07:57:53.390Z</time>
      </trkpt>
      <trkpt lat="46.33921" lon="6.84498">
        <ele>1237</ele>
        <time>2015-03-06T07:58:12.290Z</time>
      </trkpt>
      <trkpt lat="46.33931" lon="6.84494">
        <ele>1237</ele>
        <time>2015-03-06T07:58:20.290Z</time>
      </trkpt>
      <trkpt lat="46.33936" lon="6.8451">
        <ele>1237</ele>
        <time>2015-03-06T07:58:31.190Z</time>
      </trkpt>
      <trkpt lat="46.33947" lon="6.84516">
        <ele>1237.8</ele>
        <time>2015-03-06T07:58:43.390Z</time>
      </trkpt>
      <trkpt lat="46.33946" lon="6.84531">
        <ele>1244</ele>
        <time>2015-03-06T07:59:03.190Z</time>
      </trkpt>
      <trkpt lat="46.33947" lon="6.84548">
        <ele>1251.2970243074</ele>
        <time>2015-03-06T07:59:20.290Z</time>
      </trkpt>
      <trkpt lat="46.33955" lon="6.84558">
        <ele>1255</ele>
        <time>2015-03-06T07:59:32.290Z</time>
      </trkpt>
      <trkpt lat="46.33963" lon="6.84571">
        <ele>1254</ele>
        <time>2015-03-06T07:59:45.390Z</time>
      </trkpt>
      <trkpt lat="46.3397" lon="6.84583">
        <ele>1256</ele>
        <time>2015-03-06T08:00:00.330Z</time>
      </trkpt>
      <trkpt lat="46.33981" lon="6.84586">
        <ele>1257</ele>
        <time>2015-03-06T08:00:20.190Z</time>
      </trkpt>
      <trkpt lat="46.33988" lon="6.84575">
        <ele>1261.8019795706</ele>
        <time>2015-03-06T08:00:40.190Z</time>
      </trkpt>
      <trkpt lat="46.33996" lon="6.84563">
        <ele>1263.8019795706</ele>
        <time>2015-03-06T08:00:56.190Z</time>
      </trkpt>
      <trkpt lat="46.33998" lon="6.84546">
        <ele>1265.2999936</ele>
        <time>2015-03-06T08:01:09.290Z</time>
      </trkpt>
      <trkpt lat="46.34005" lon="6.84533">
        <ele>1274.17185</ele>
        <time>2015-03-06T08:01:28.290Z</time>
      </trkpt>
      <trkpt lat="46.34017" lon="6.84518">
        <ele>1279</ele>
        <time>2015-03-06T08:01:47.290Z</time>
      </trkpt>
      <trkpt lat="46.34029" lon="6.84513">
        <ele>1276.8019922439</ele>
        <time>2015-03-06T08:02:00.090Z</time>
      </trkpt>
      <trkpt lat="46.34041" lon="6.84519">
        <ele>1280.9375</ele>
        <time>2015-03-06T08:02:17.390Z</time>
      </trkpt>
      <trkpt lat="46.34048" lon="6.8453">
        <ele>1289.1800064</ele>
        <time>2015-03-06T08:02:41.190Z</time>
      </trkpt>
      <trkpt lat="46.34064" lon="6.84529">
        <ele>1299.2283534404</ele>
        <time>2015-03-06T08:02:59.390Z</time>
      </trkpt>
      <trkpt lat="46.34073" lon="6.84536">
        <ele>1298.9000064</ele>
        <time>2015-03-06T08:03:07.090Z</time>
      </trkpt>
      <trkpt lat="46.34079" lon="6.8455">
        <ele>1295</ele>
        <time>2015-03-06T08:03:19.090Z</time>
      </trkpt>
      <trkpt lat="46.34082" lon="6.84569">
        <ele>1298.23437</ele>
        <time>2015-03-06T08:03:38.290Z</time>
      </trkpt>
      <trkpt lat="46.34089" lon="6.8458">
        <ele>1300</ele>
        <time>2015-03-06T08:04:05.290Z</time>
      </trkpt>
      <trkpt lat="46.34098" lon="6.8459">
        <ele>1307.23437</ele>
        <time>2015-03-06T08:04:24.290Z</time>
      </trkpt>
      <trkpt lat="46.34109" lon="6.84601">
        <ele>1307</ele>
        <time>2015-03-06T08:04:44.390Z</time>
      </trkpt>
      <trkpt lat="46.34117" lon="6.84615">
        <ele>1310</ele>
        <time>2015-03-06T08:05:00.390Z</time>
      </trkpt>
      <trkpt lat="46.34118" lon="6.8464">
        <ele>1317.900032</ele>
        <time>2015-03-06T08:05:17.190Z</time>
      </trkpt>
      <trkpt lat="46.34128" lon="6.84644">
        <ele>1311</ele>
        <time>2015-03-06T08:05:35.090Z</time>
      </trkpt>
      <trkpt lat="46.34138" lon="6.84656">
        <ele>1311.9000064</ele>
        <time>2015-03-06T08:05:47.090Z</time>
      </trkpt>
      <trkpt lat="46.34135" lon="6.84639">
        <ele>1312</ele>
        <time>2015-03-06T08:06:15.390Z</time>
      </trkpt>
      <trkpt lat="46.34132" lon="6.84621">
        <ele>1313.23437</ele>
        <time>2015-03-06T08:06:25.290Z</time>
      </trkpt>
      <trkpt lat="46.34139" lon="6.84604">
        <ele>1314.7000064</ele>
        <time>2015-03-06T08:06:40.290Z</time>
      </trkpt>
      <trkpt lat="46.34135" lon="6.84567">
        <ele>1319.70311</ele>
        <time>2015-03-06T08:07:07.290Z</time>
      </trkpt>
      <trkpt lat="46.34135" lon="6.84549">
        <ele>1328</ele>
        <time>2015-03-06T08:07:20.390Z</time>
      </trkpt>
      <trkpt lat="46.34137" lon="6.84529">
        <ele>1336.8</ele>
        <time>2015-03-06T08:07:36.190Z</time>
      </trkpt>
      <trkpt lat="46.34145" lon="6.84515">
        <ele>1341</ele>
        <time>2015-03-06T08:07:48.190Z</time>
      </trkpt>
      <trkpt lat="46.34152" lon="6.84499">
        <ele>1340.2999936</ele>
        <time>2015-03-06T08:08:23.290Z</time>
      </trkpt>
      <trkpt lat="46.34157" lon="6.84484">
        <ele>1336.3129867211</ele>
        <time>2015-03-06T08:08:38.290Z</time>
      </trkpt>
      <trkpt lat="46.34159" lon="6.84469">
        <ele>1339.1960796617</ele>
        <time>2015-03-06T08:08:51.190Z</time>
      </trkpt>
      <trkpt lat="46.34152" lon="6.84456">
        <ele>1340.2</ele>
        <time>2015-03-06T08:09:18.190Z</time>
      </trkpt>
      <trkpt lat="46.34152" lon="6.84441">
        <ele>1338.2307654438</ele>
        <time>2015-03-06T08:09:31.290Z</time>
      </trkpt>
      <trkpt lat="46.34145" lon="6.8443">
        <ele>1343</ele>
        <time>2015-03-06T08:09:47.190Z</time>
      </trkpt>
      <trkpt lat="46.34136" lon="6.84415">
        <ele>1349.3939413529</ele>
        <time>2015-03-06T08:10:03.390Z</time>
      </trkpt>
      <trkpt lat="46.34137" lon="6.844">
        <ele>1351.3888843739</ele>
        <time>2015-03-06T08:10:20.490Z</time>
      </trkpt>
      <trkpt lat="46.34136" lon="6.8438">
        <ele>1356</ele>
        <time>2015-03-06T08:10:36.190Z</time>
      </trkpt>
      <trkpt lat="46.34133" lon="6.84365">
        <ele>1356.705886782</ele>
        <time>2015-03-06T08:10:48.290Z</time>
      </trkpt>
      <trkpt lat="46.34125" lon="6.8435">
        <ele>1358.1960796617</ele>
        <time>2015-03-06T08:11:08.190Z</time>
      </trkpt>
      <trkpt lat="46.3412" lon="6.84337">
        <ele>1363</ele>
        <time>2015-03-06T08:11:28.190Z</time>
      </trkpt>
      <trkpt lat="46.34124" lon="6.84322">
        <ele>1363.46874</ele>
        <time>2015-03-06T08:11:38.290Z</time>
      </trkpt>
      <trkpt lat="46.34135" lon="6.84326">
        <ele>1366.2999936</ele>
        <time>2015-03-06T08:11:55.290Z</time>
      </trkpt>
      <trkpt lat="46.34145" lon="6.84333">
        <ele>1369.2362148379</ele>
        <time>2015-03-06T08:12:14.290Z</time>
      </trkpt>
      <trkpt lat="46.34158" lon="6.84328">
        <ele>1376</ele>
        <time>2015-03-06T08:12:30.390Z</time>
      </trkpt>
      <trkpt lat="46.34171" lon="6.84336">
        <ele>1381.1800064</ele>
        <time>2015-03-06T08:12:47.190Z</time>
      </trkpt>
      <trkpt lat="46.34176" lon="6.84352">
        <ele>1381</ele>
        <time>2015-03-06T08:13:03.190Z</time>
      </trkpt>
      <trkpt lat="46.34177" lon="6.84369">
        <ele>1389.1836788005</ele>
        <time>2015-03-06T08:13:26.190Z</time>
      </trkpt>
      <trkpt lat="46.34166" lon="6.8437">
        <ele>1401.7029756926</ele>
        <time>2015-03-06T08:14:56.290Z</time>
      </trkpt>
      <trkpt lat="46.34165" lon="6.84385">
        <ele>1403.8</ele>
        <time>2015-03-06T08:15:16.190Z</time>
      </trkpt>
      <trkpt lat="46.34169" lon="6.84367">
        <ele>1400</ele>
        <time>2015-03-06T08:16:08.390Z</time>
      </trkpt>
      <trkpt lat="46.34168" lon="6.8435">
        <ele>1400</ele>
        <time>2015-03-06T08:16:24.190Z</time>
      </trkpt>
      <trkpt lat="46.34173" lon="6.84336">
        <ele>1401</ele>
        <time>2015-03-06T08:16:36.190Z</time>
      </trkpt>
      <trkpt lat="46.34175" lon="6.84321">
        <ele>1405</ele>
        <time>2015-03-06T08:16:52.390Z</time>
      </trkpt>
      <trkpt lat="46.34179" lon="6.84307">
        <ele>1406</ele>
        <time>2015-03-06T08:17:04.190Z</time>
      </trkpt>
      <trkpt lat="46.34187" lon="6.84289">
        <ele>1407.8</ele>
        <time>2015-03-06T08:17:16.190Z</time>
      </trkpt>
      <trkpt lat="46.34191" lon="6.84274">
        <ele>1410</ele>
        <time>2015-03-06T08:17:28.390Z</time>
      </trkpt>
      <trkpt lat="46.34199" lon="6.84263">
        <ele>1409.2</ele>
        <time>2015-03-06T08:17:36.190Z</time>
      </trkpt>
      <trkpt lat="46.34203" lon="6.84249">
        <ele>1409.8</ele>
        <time>2015-03-06T08:17:52.190Z</time>
      </trkpt>
      <trkpt lat="46.34197" lon="6.84237">
        <ele>1408.8</ele>
        <time>2015-03-06T08:18:04.190Z</time>
      </trkpt>
      <trkpt lat="46.34199" lon="6.84225">
        <ele>1409</ele>
        <time>2015-03-06T08:18:16.390Z</time>
      </trkpt>
      <trkpt lat="46.34203" lon="6.84205">
        <ele>1409</ele>
        <time>2015-03-06T08:18:32.190Z</time>
      </trkpt>
      <trkpt lat="46.34211" lon="6.84194">
        <ele>1411</ele>
        <time>2015-03-06T08:18:48.390Z</time>
      </trkpt>
      <trkpt lat="46.34223" lon="6.84177">
        <ele>1417</ele>
        <time>2015-03-06T08:19:21.290Z</time>
      </trkpt>
      <trkpt lat="46.34226" lon="6.84163">
        <ele>1419</ele>
        <time>2015-03-06T08:19:33.390Z</time>
      </trkpt>
      <trkpt lat="46.34237" lon="6.84163">
        <ele>1422</ele>
        <time>2015-03-06T08:19:45.390Z</time>
      </trkpt>
      <trkpt lat="46.34234" lon="6.84148">
        <ele>1423</ele>
        <time>2015-03-06T08:19:57.190Z</time>
      </trkpt>
      <trkpt lat="46.34238" lon="6.84128">
        <ele>1425</ele>
        <time>2015-03-06T08:20:13.190Z</time>
      </trkpt>
      <trkpt lat="46.34238" lon="6.84111">
        <ele>1425</ele>
        <time>2015-03-06T08:20:21.190Z</time>
      </trkpt>
      <trkpt lat="46.34233" lon="6.84099">
        <ele>1427</ele>
        <time>2015-03-06T08:20:33.190Z</time>
      </trkpt>
      <trkpt lat="46.34245" lon="6.84087">
        <ele>1430</ele>
        <time>2015-03-06T08:20:45.190Z</time>
      </trkpt>
      <trkpt lat="46.34239" lon="6.84071">
        <ele>1432</ele>
        <time>2015-03-06T08:21:01.190Z</time>
      </trkpt>
      <trkpt lat="46.34255" lon="6.84058">
        <ele>1434</ele>
        <time>2015-03-06T08:21:17.290Z</time>
      </trkpt>
      <trkpt lat="46.34264" lon="6.84057">
        <ele>1437</ele>
        <time>2015-03-06T08:21:25.190Z</time>
      </trkpt>
      <trkpt lat="46.34277" lon="6.84043">
        <ele>1439.4999936</ele>
        <time>2015-03-06T08:21:41.490Z</time>
      </trkpt>
      <trkpt lat="46.34288" lon="6.8404">
        <ele>1443</ele>
        <time>2015-03-06T08:21:50.030Z</time>
      </trkpt>
      <trkpt lat="46.34288" lon="6.84025">
        <ele>1440.15625</ele>
        <time>2015-03-06T08:23:02.190Z</time>
      </trkpt>
      <trkpt lat="46.34301" lon="6.84021">
        <ele>1445.4</ele>
        <time>2015-03-06T08:23:18.390Z</time>
      </trkpt>
      <trkpt lat="46.34314" lon="6.84013">
        <ele>1448</ele>
        <time>2015-03-06T08:23:34.200Z</time>
      </trkpt>
      <trkpt lat="46.34321" lon="6.83993">
        <ele>1450.6</ele>
        <time>2015-03-06T08:24:14.390Z</time>
      </trkpt>
      <trkpt lat="46.34316" lon="6.83977">
        <ele>1451</ele>
        <time>2015-03-06T08:24:22.390Z</time>
      </trkpt>
      <trkpt lat="46.34316" lon="6.83959">
        <ele>1449.6</ele>
        <time>2015-03-06T08:24:30.390Z</time>
      </trkpt>
      <trkpt lat="46.34311" lon="6.83941">
        <ele>1448</ele>
        <time>2015-03-06T08:24:42.390Z</time>
      </trkpt>
      <trkpt lat="46.34317" lon="6.83924">
        <ele>1449</ele>
        <time>2015-03-06T08:24:50.390Z</time>
      </trkpt>
      <trkpt lat="46.34326" lon="6.83915">
        <ele>1449</ele>
        <time>2015-03-06T08:24:58.390Z</time>
      </trkpt>
      <trkpt lat="46.34329" lon="6.83898">
        <ele>1449</ele>
        <time>2015-03-06T08:25:06.390Z</time>
      </trkpt>
      <trkpt lat="46.34334" lon="6.83885">
        <ele>1447</ele>
        <time>2015-03-06T08:25:14.390Z</time>
      </trkpt>
      <trkpt lat="46.34345" lon="6.83873">
        <ele>1445.3800064</ele>
        <time>2015-03-06T08:25:22.390Z</time>
      </trkpt>
      <trkpt lat="46.34351" lon="6.8386">
        <ele>1445</ele>
        <time>2015-03-06T08:25:30.390Z</time>
      </trkpt>
      <trkpt lat="46.34361" lon="6.83853">
        <ele>1442</ele>
        <time>2015-03-06T08:26:11.390Z</time>
      </trkpt>
      <trkpt lat="46.3435" lon="6.83853">
        <ele>1446</ele>
        <time>2015-03-06T08:26:35.390Z</time>
      </trkpt>
      <trkpt lat="46.3436" lon="6.83857">
        <ele>1450</ele>
        <time>2015-03-06T08:27:59.390Z</time>
      </trkpt>
      <trkpt lat="46.34347" lon="6.83862">
        <ele>1449</ele>
        <time>2015-03-06T08:28:23.390Z</time>
      </trkpt>
      <trkpt lat="46.34346" lon="6.83847">
        <ele>1450</ele>
        <time>2015-03-06T08:28:40.390Z</time>
      </trkpt>
      <trkpt lat="46.34356" lon="6.83853">
        <ele>1452</ele>
        <time>2015-03-06T08:29:15.490Z</time>
      </trkpt>
      <trkpt lat="46.34366" lon="6.83856">
        <ele>1452</ele>
        <time>2015-03-06T08:31:30.390Z</time>
      </trkpt>
      <trkpt lat="46.34355" lon="6.83854">
        <ele>1449</ele>
        <time>2015-03-06T08:32:32.390Z</time>
      </trkpt>
      <trkpt lat="46.34366" lon="6.83858">
        <ele>1444</ele>
        <time>2015-03-06T08:33:16.390Z</time>
      </trkpt>
      <trkpt lat="46.34355" lon="6.83853">
        <ele>1450.4</ele>
        <time>2015-03-06T08:33:40.390Z</time>
      </trkpt>
      <trkpt lat="46.34346" lon="6.83848">
        <ele>1452</ele>
        <time>2015-03-06T08:35:04.390Z</time>
      </trkpt>
      <trkpt lat="46.34335" lon="6.83839">
        <ele>1447.6</ele>
        <time>2015-03-06T08:35:24.390Z</time>
      </trkpt>
      <trkpt lat="46.34345" lon="6.83843">
        <ele>1448</ele>
        <time>2015-03-06T08:35:44.390Z</time>
      </trkpt>
      <trkpt lat="46.34357" lon="6.83841">
        <ele>1448</ele>
        <time>2015-03-06T08:36:08.390Z</time>
      </trkpt>
      <trkpt lat="46.34366" lon="6.83831">
        <ele>1450</ele>
        <time>2015-03-06T08:36:16.390Z</time>
      </trkpt>
      <trkpt lat="46.3438" lon="6.83824">
        <ele>1451</ele>
        <time>2015-03-06T08:36:24.390Z</time>
      </trkpt>
      <trkpt lat="46.34395" lon="6.83804">
        <ele>1450</ele>
        <time>2015-03-06T08:36:36.390Z</time>
      </trkpt>
      <trkpt lat="46.34407" lon="6.83792">
        <ele>1449.7000064</ele>
        <time>2015-03-06T08:36:44.290Z</time>
      </trkpt>
      <trkpt lat="46.34414" lon="6.83777">
        <ele>1447</ele>
        <time>2015-03-06T08:36:52.390Z</time>
      </trkpt>
      <trkpt lat="46.34395" lon="6.83742">
        <ele>1448</ele>
        <time>2015-03-06T08:37:05.490Z</time>
      </trkpt>
      <trkpt lat="46.34392" lon="6.83725">
        <ele>1443.5000064</ele>
        <time>2015-03-06T08:37:13.490Z</time>
      </trkpt>
      <trkpt lat="46.34392" lon="6.83706">
        <ele>1439</ele>
        <time>2015-03-06T08:37:21.490Z</time>
      </trkpt>
      <trkpt lat="46.34395" lon="6.83691">
        <ele>1436</ele>
        <time>2015-03-06T08:37:29.490Z</time>
      </trkpt>
      <trkpt lat="46.34397" lon="6.83677">
        <ele>1435</ele>
        <time>2015-03-06T08:37:37.490Z</time>
      </trkpt>
      <trkpt lat="46.34402" lon="6.83663">
        <ele>1436</ele>
        <time>2015-03-06T08:37:45.490Z</time>
      </trkpt>
      <trkpt lat="46.34404" lon="6.83642">
        <ele>1436.5050553372</ele>
        <time>2015-03-06T08:37:57.490Z</time>
      </trkpt>
      <trkpt lat="46.34402" lon="6.83625">
        <ele>1436</ele>
        <time>2015-03-06T08:38:09.490Z</time>
      </trkpt>
      <trkpt lat="46.34395" lon="6.83604">
        <ele>1436</ele>
        <time>2015-03-06T08:38:57.490Z</time>
      </trkpt>
      <trkpt lat="46.34385" lon="6.83585">
        <ele>1436</ele>
        <time>2015-03-06T08:39:05.490Z</time>
      </trkpt>
      <trkpt lat="46.34386" lon="6.83559">
        <ele>1435</ele>
        <time>2015-03-06T08:39:13.490Z</time>
      </trkpt>
      <trkpt lat="46.34389" lon="6.83536">
        <ele>1434.6</ele>
        <time>2015-03-06T08:39:21.390Z</time>
      </trkpt>
      <trkpt lat="46.34395" lon="6.83514">
        <ele>1433</ele>
        <time>2015-03-06T08:39:29.390Z</time>
      </trkpt>
      <trkpt lat="46.34399" lon="6.83491">
        <ele>1433</ele>
        <time>2015-03-06T08:39:37.390Z</time>
      </trkpt>
      <trkpt lat="46.344" lon="6.83465">
        <ele>1432</ele>
        <time>2015-03-06T08:39:45.390Z</time>
      </trkpt>
      <trkpt lat="46.34399" lon="6.83445">
        <ele>1431</ele>
        <time>2015-03-06T08:39:53.390Z</time>
      </trkpt>
      <trkpt lat="46.34401" lon="6.83425">
        <ele>1430</ele>
        <time>2015-03-06T08:40:33.390Z</time>
      </trkpt>
      <trkpt lat="46.34412" lon="6.83404">
        <ele>1429</ele>
        <time>2015-03-06T08:40:41.390Z</time>
      </trkpt>
      <trkpt lat="46.34422" lon="6.83389">
        <ele>1428</ele>
        <time>2015-03-06T08:40:49.390Z</time>
      </trkpt>
      <trkpt lat="46.34431" lon="6.83373">
        <ele>1428</ele>
        <time>2015-03-06T08:40:57.390Z</time>
      </trkpt>
      <trkpt lat="46.34439" lon="6.83356">
        <ele>1427.2999936</ele>
        <time>2015-03-06T08:41:05.290Z</time>
      </trkpt>
      <trkpt lat="46.3445" lon="6.83342">
        <ele>1429</ele>
        <time>2015-03-06T08:41:13.490Z</time>
      </trkpt>
      <trkpt lat="46.34461" lon="6.8334">
        <ele>1429</ele>
        <time>2015-03-06T08:41:21.190Z</time>
      </trkpt>
      <trkpt lat="46.34457" lon="6.83323">
        <ele>1429</ele>
        <time>2015-03-06T08:41:30.290Z</time>
      </trkpt>
      <trkpt lat="46.34467" lon="6.83315">
        <ele>1432</ele>
        <time>2015-03-06T08:41:39.190Z</time>
      </trkpt>
      <trkpt lat="46.34477" lon="6.83302">
        <ele>1430</ele>
        <time>2015-03-06T08:41:48.190Z</time>
      </trkpt>
      <trkpt lat="46.3448" lon="6.83286">
        <ele>1426.2</ele>
        <time>2015-03-06T08:42:06.190Z</time>
      </trkpt>
      <trkpt lat="46.34465" lon="6.83285">
        <ele>1426</ele>
        <time>2015-03-06T08:42:15.190Z</time>
      </trkpt>
      <trkpt lat="46.34454" lon="6.83283">
        <ele>1428.6</ele>
        <time>2015-03-06T08:42:24.190Z</time>
      </trkpt>
      <trkpt lat="46.34468" lon="6.83286">
        <ele>1430</ele>
        <time>2015-03-06T08:42:40.490Z</time>
      </trkpt>
      <trkpt lat="46.34473" lon="6.83271">
        <ele>1440.4999936</ele>
        <time>2015-03-06T08:42:58.490Z</time>
      </trkpt>
      <trkpt lat="46.34501" lon="6.83282">
        <ele>1446.2</ele>
        <time>2015-03-06T08:43:11.190Z</time>
      </trkpt>
      <trkpt lat="46.34501" lon="6.83266">
        <ele>1450.4</ele>
        <time>2015-03-06T08:43:24.190Z</time>
      </trkpt>
      <trkpt lat="46.34498" lon="6.83249">
        <ele>1453.8</ele>
        <time>2015-03-06T08:43:33.190Z</time>
      </trkpt>
      <trkpt lat="46.34495" lon="6.83228">
        <ele>1450</ele>
        <time>2015-03-06T08:43:46.490Z</time>
      </trkpt>
      <trkpt lat="46.34497" lon="6.83209">
        <ele>1455.3600128</ele>
        <time>2015-03-06T08:44:00.190Z</time>
      </trkpt>
      <trkpt lat="46.34505" lon="6.83198">
        <ele>1459</ele>
        <time>2015-03-06T08:44:09.190Z</time>
      </trkpt>
      <trkpt lat="46.34515" lon="6.83177">
        <ele>1460.8217752769</ele>
        <time>2015-03-06T08:44:27.190Z</time>
      </trkpt>
      <trkpt lat="46.3451" lon="6.83159">
        <ele>1462.0505016549</ele>
        <time>2015-03-06T08:44:40.490Z</time>
      </trkpt>
      <trkpt lat="46.34527" lon="6.83145">
        <ele>1462.5252576187</ele>
        <time>2015-03-06T08:44:49.490Z</time>
      </trkpt>
      <trkpt lat="46.34524" lon="6.83129">
        <ele>1456.6082447019</ele>
        <time>2015-03-06T08:44:58.210Z</time>
      </trkpt>
      <trkpt lat="46.3452" lon="6.83113">
        <ele>1453.0000128</ele>
        <time>2015-03-06T08:45:07.490Z</time>
      </trkpt>
      <trkpt lat="46.34514" lon="6.83096">
        <ele>1456.8</ele>
        <time>2015-03-06T08:45:21.190Z</time>
      </trkpt>
      <trkpt lat="46.34511" lon="6.83079">
        <ele>1466.5000064</ele>
        <time>2015-03-06T08:45:34.490Z</time>
      </trkpt>
      <trkpt lat="46.34506" lon="6.83065">
        <ele>1451.8</ele>
        <time>2015-03-06T08:45:48.190Z</time>
      </trkpt>
      <trkpt lat="46.34504" lon="6.8305">
        <ele>1448.4999936</ele>
        <time>2015-03-06T08:46:01.490Z</time>
      </trkpt>
      <trkpt lat="46.34497" lon="6.83037">
        <ele>1451.5000064</ele>
        <time>2015-03-06T08:46:10.490Z</time>
      </trkpt>
      <trkpt lat="46.34509" lon="6.83019">
        <ele>1453.6299904</ele>
        <time>2015-03-06T08:46:24.200Z</time>
      </trkpt>
      <trkpt lat="46.34501" lon="6.83001">
        <ele>1450.0000128</ele>
        <time>2015-03-06T08:46:37.490Z</time>
      </trkpt>
      <trkpt lat="46.34509" lon="6.8299">
        <ele>1447.4199936</ele>
        <time>2015-03-06T08:46:51.200Z</time>
      </trkpt>
      <trkpt lat="46.34483" lon="6.82958">
        <ele>1441.8</ele>
        <time>2015-03-06T08:47:09.190Z</time>
      </trkpt>
      <trkpt lat="46.34488" lon="6.82945">
        <ele>1449.0000128</ele>
        <time>2015-03-06T08:47:31.490Z</time>
      </trkpt>
      <trkpt lat="46.34496" lon="6.82937">
        <ele>1450.8</ele>
        <time>2015-03-06T08:47:45.190Z</time>
      </trkpt>
      <trkpt lat="46.345" lon="6.82921">
        <ele>1459.2</ele>
        <time>2015-03-06T08:48:03.190Z</time>
      </trkpt>
      <trkpt lat="46.34512" lon="6.82926">
        <ele>1464.4</ele>
        <time>2015-03-06T08:48:12.190Z</time>
      </trkpt>
      <trkpt lat="46.34519" lon="6.82926">
        <ele>1469.4999936</ele>
        <time>2015-03-06T08:48:25.490Z</time>
      </trkpt>
      <trkpt lat="46.34508" lon="6.8292">
        <ele>1469.8</ele>
        <time>2015-03-06T08:48:39.190Z</time>
      </trkpt>
      <trkpt lat="46.34496" lon="6.82918">
        <ele>1466</ele>
        <time>2015-03-06T08:49:10.490Z</time>
      </trkpt>
      <trkpt lat="46.34487" lon="6.82914">
        <ele>1464</ele>
        <time>2015-03-06T08:49:42.190Z</time>
      </trkpt>
      <trkpt lat="46.34496" lon="6.82901">
        <ele>1466.8</ele>
        <time>2015-03-06T08:50:12.190Z</time>
      </trkpt>
      <trkpt lat="46.34502" lon="6.82913">
        <ele>1453.6</ele>
        <time>2015-03-06T08:50:33.190Z</time>
      </trkpt>
      <trkpt lat="46.34512" lon="6.82905">
        <ele>1455.4</ele>
        <time>2015-03-06T08:50:41.190Z</time>
      </trkpt>
      <trkpt lat="46.34496" lon="6.82898">
        <ele>1456</ele>
        <time>2015-03-06T08:50:49.490Z</time>
      </trkpt>
      <trkpt lat="46.34503" lon="6.82879">
        <ele>1457.4901928796</ele>
        <time>2015-03-06T08:51:10.490Z</time>
      </trkpt>
      <trkpt lat="46.34512" lon="6.82866">
        <ele>1474</ele>
        <time>2015-03-06T08:51:22.490Z</time>
      </trkpt>
      <trkpt lat="46.34511" lon="6.82845">
        <ele>1463</ele>
        <time>2015-03-06T08:51:50.190Z</time>
      </trkpt>
      <trkpt lat="46.34513" lon="6.82825">
        <ele>1460.2</ele>
        <time>2015-03-06T08:52:02.190Z</time>
      </trkpt>
      <trkpt lat="46.34501" lon="6.82822">
        <ele>1459.4</ele>
        <time>2015-03-06T08:52:26.190Z</time>
      </trkpt>
      <trkpt lat="46.34493" lon="6.82808">
        <ele>1457.4</ele>
        <time>2015-03-06T08:52:38.190Z</time>
      </trkpt>
      <trkpt lat="46.34503" lon="6.82784">
        <ele>1451.2</ele>
        <time>2015-03-06T08:53:02.190Z</time>
      </trkpt>
      <trkpt lat="46.34515" lon="6.82778">
        <ele>1455</ele>
        <time>2015-03-06T08:53:10.490Z</time>
      </trkpt>
      <trkpt lat="46.34525" lon="6.82772">
        <ele>1456</ele>
        <time>2015-03-06T08:53:18.190Z</time>
      </trkpt>
      <trkpt lat="46.3454" lon="6.82779">
        <ele>1454.2</ele>
        <time>2015-03-06T08:53:42.190Z</time>
      </trkpt>
      <trkpt lat="46.34536" lon="6.82764">
        <ele>1452</ele>
        <time>2015-03-06T08:54:06.190Z</time>
      </trkpt>
      <trkpt lat="46.34542" lon="6.82749">
        <ele>1452</ele>
        <time>2015-03-06T08:54:18.190Z</time>
      </trkpt>
      <trkpt lat="46.34554" lon="6.82744">
        <ele>1452</ele>
        <time>2015-03-06T08:54:34.490Z</time>
      </trkpt>
      <trkpt lat="46.34543" lon="6.82745">
        <ele>1455</ele>
        <time>2015-03-06T08:54:59.190Z</time>
      </trkpt>
      <trkpt lat="46.3455" lon="6.82733">
        <ele>1452.6</ele>
        <time>2015-03-06T08:55:12.190Z</time>
      </trkpt>
      <trkpt lat="46.34552" lon="6.82715">
        <ele>1452</ele>
        <time>2015-03-06T08:55:30.190Z</time>
      </trkpt>
      <trkpt lat="46.3457" lon="6.82702">
        <ele>1450</ele>
        <time>2015-03-06T08:55:42.190Z</time>
      </trkpt>
      <trkpt lat="46.34584" lon="6.82703">
        <ele>1452.2</ele>
        <time>2015-03-06T08:55:51.190Z</time>
      </trkpt>
      <trkpt lat="46.34596" lon="6.82705">
        <ele>1459.6</ele>
        <time>2015-03-06T08:56:03.190Z</time>
      </trkpt>
      <trkpt lat="46.34603" lon="6.82693">
        <ele>1452</ele>
        <time>2015-03-06T08:56:15.190Z</time>
      </trkpt>
      <trkpt lat="46.34611" lon="6.82681">
        <ele>1452.6</ele>
        <time>2015-03-06T08:56:23.190Z</time>
      </trkpt>
      <trkpt lat="46.34626" lon="6.82681">
        <ele>1454.8</ele>
        <time>2015-03-06T08:56:35.190Z</time>
      </trkpt>
      <trkpt lat="46.34615" lon="6.82672">
        <ele>1455.1980204294</ele>
        <time>2015-03-06T08:56:47.190Z</time>
      </trkpt>
      <trkpt lat="46.34631" lon="6.82657">
        <ele>1457.1980204294</ele>
        <time>2015-03-06T08:56:59.190Z</time>
      </trkpt>
      <trkpt lat="46.3465" lon="6.82648">
        <ele>1459</ele>
        <time>2015-03-06T08:57:23.190Z</time>
      </trkpt>
      <trkpt lat="46.34655" lon="6.82626">
        <ele>1461</ele>
        <time>2015-03-06T08:57:43.490Z</time>
      </trkpt>
      <trkpt lat="46.34665" lon="6.82626">
        <ele>1461</ele>
        <time>2015-03-06T08:57:51.190Z</time>
      </trkpt>
      <trkpt lat="46.34667" lon="6.82611">
        <ele>1463</ele>
        <time>2015-03-06T08:58:07.490Z</time>
      </trkpt>
      <trkpt lat="46.34677" lon="6.82599">
        <ele>1467</ele>
        <time>2015-03-06T08:58:31.490Z</time>
      </trkpt>
      <trkpt lat="46.34689" lon="6.82598">
        <ele>1468</ele>
        <time>2015-03-06T08:58:43.490Z</time>
      </trkpt>
      <trkpt lat="46.347" lon="6.82597">
        <ele>1470</ele>
        <time>2015-03-06T08:58:51.190Z</time>
      </trkpt>
      <trkpt lat="46.34711" lon="6.8258">
        <ele>1478</ele>
        <time>2015-03-06T08:59:11.290Z</time>
      </trkpt>
      <trkpt lat="46.3472" lon="6.82573">
        <ele>1483</ele>
        <time>2015-03-06T08:59:27.390Z</time>
      </trkpt>
      <trkpt lat="46.34729" lon="6.82557">
        <ele>1487</ele>
        <time>2015-03-06T08:59:39.390Z</time>
      </trkpt>
      <trkpt lat="46.34737" lon="6.82546">
        <ele>1493</ele>
        <time>2015-03-06T08:59:59.190Z</time>
      </trkpt>
      <trkpt lat="46.34742" lon="6.8253">
        <ele>1497</ele>
        <time>2015-03-06T09:00:19.190Z</time>
      </trkpt>
      <trkpt lat="46.34751" lon="6.82517">
        <ele>1503</ele>
        <time>2015-03-06T09:00:39.390Z</time>
      </trkpt>
      <trkpt lat="46.34754" lon="6.825">
        <ele>1505.4</ele>
        <time>2015-03-06T09:00:51.390Z</time>
      </trkpt>
      <trkpt lat="46.34761" lon="6.8249">
        <ele>1508</ele>
        <time>2015-03-06T09:01:03.390Z</time>
      </trkpt>
      <trkpt lat="46.34766" lon="6.82476">
        <ele>1514</ele>
        <time>2015-03-06T09:01:35.290Z</time>
      </trkpt>
      <trkpt lat="46.34775" lon="6.82467">
        <ele>1519.2</ele>
        <time>2015-03-06T09:01:55.190Z</time>
      </trkpt>
      <trkpt lat="46.34786" lon="6.82467">
        <ele>1521</ele>
        <time>2015-03-06T09:02:03.390Z</time>
      </trkpt>
      <trkpt lat="46.34797" lon="6.82465">
        <ele>1529</ele>
        <time>2015-03-06T09:02:19.390Z</time>
      </trkpt>
      <trkpt lat="46.34808" lon="6.82466">
        <ele>1531.7000064</ele>
        <time>2015-03-06T09:02:35.290Z</time>
      </trkpt>
      <trkpt lat="46.34812" lon="6.82449">
        <ele>1535</ele>
        <time>2015-03-06T09:03:03.390Z</time>
      </trkpt>
      <trkpt lat="46.34809" lon="6.82433">
        <ele>1536.2999936</ele>
        <time>2015-03-06T09:03:23.290Z</time>
      </trkpt>
      <trkpt lat="46.34809" lon="6.82416">
        <ele>1540.2999936</ele>
        <time>2015-03-06T09:03:47.290Z</time>
      </trkpt>
      <trkpt lat="46.34806" lon="6.824">
        <ele>1540.2999936</ele>
        <time>2015-03-06T09:03:59.290Z</time>
      </trkpt>
      <trkpt lat="46.34805" lon="6.82384">
        <ele>1544</ele>
        <time>2015-03-06T09:04:15.290Z</time>
      </trkpt>
      <trkpt lat="46.34802" lon="6.82368">
        <ele>1548</ele>
        <time>2015-03-06T09:04:31.390Z</time>
      </trkpt>
      <trkpt lat="46.34804" lon="6.82353">
        <ele>1550</ele>
        <time>2015-03-06T09:04:39.290Z</time>
      </trkpt>
      <trkpt lat="46.34801" lon="6.8234">
        <ele>1552</ele>
        <time>2015-03-06T09:04:51.290Z</time>
      </trkpt>
      <trkpt lat="46.34807" lon="6.82329">
        <ele>1555.3960408587</ele>
        <time>2015-03-06T09:05:07.390Z</time>
      </trkpt>
      <trkpt lat="46.34806" lon="6.82311">
        <ele>1558</ele>
        <time>2015-03-06T09:05:19.390Z</time>
      </trkpt>
      <trkpt lat="46.34803" lon="6.82296">
        <ele>1560</ele>
        <time>2015-03-06T09:05:31.390Z</time>
      </trkpt>
      <trkpt lat="46.34798" lon="6.82283">
        <ele>1560.2929251138</ele>
        <time>2015-03-06T09:05:47.290Z</time>
      </trkpt>
      <trkpt lat="46.34793" lon="6.82267">
        <ele>1562.2929251138</ele>
        <time>2015-03-06T09:05:59.290Z</time>
      </trkpt>
      <trkpt lat="46.34793" lon="6.82251">
        <ele>1563</ele>
        <time>2015-03-06T09:06:11.290Z</time>
      </trkpt>
      <trkpt lat="46.34791" lon="6.82235">
        <ele>1566</ele>
        <time>2015-03-06T09:06:23.290Z</time>
      </trkpt>
      <trkpt lat="46.3478" lon="6.82224">
        <ele>1567.2999936</ele>
        <time>2015-03-06T09:06:39.290Z</time>
      </trkpt>
      <trkpt lat="46.34779" lon="6.82209">
        <ele>1571</ele>
        <time>2015-03-06T09:06:51.290Z</time>
      </trkpt>
      <trkpt lat="46.3478" lon="6.82191">
        <ele>1572</ele>
        <time>2015-03-06T09:07:07.390Z</time>
      </trkpt>
      <trkpt lat="46.3478" lon="6.82175">
        <ele>1574</ele>
        <time>2015-03-06T09:07:19.390Z</time>
      </trkpt>
      <trkpt lat="46.34781" lon="6.82158">
        <ele>1572.4000128</ele>
        <time>2015-03-06T09:07:35.290Z</time>
      </trkpt>
      <trkpt lat="46.34786" lon="6.82143">
        <ele>1572</ele>
        <time>2015-03-06T09:07:55.390Z</time>
      </trkpt>
      <trkpt lat="46.34779" lon="6.8213">
        <ele>1572</ele>
        <time>2015-03-06T09:08:11.290Z</time>
      </trkpt>
      <trkpt lat="46.3478" lon="6.82115">
        <ele>1575</ele>
        <time>2015-03-06T09:08:19.390Z</time>
      </trkpt>
      <trkpt lat="46.34774" lon="6.82099">
        <ele>1575</ele>
        <time>2015-03-06T09:08:31.390Z</time>
      </trkpt>
      <trkpt lat="46.34764" lon="6.82094">
        <ele>1577</ele>
        <time>2015-03-06T09:08:47.290Z</time>
      </trkpt>
      <trkpt lat="46.34754" lon="6.82083">
        <ele>1577</ele>
        <time>2015-03-06T09:09:00.390Z</time>
      </trkpt>
      <trkpt lat="46.34744" lon="6.82072">
        <ele>1581.6</ele>
        <time>2015-03-06T09:09:28.390Z</time>
      </trkpt>
      <trkpt lat="46.34732" lon="6.8207">
        <ele>1586</ele>
        <time>2015-03-06T09:09:40.390Z</time>
      </trkpt>
      <trkpt lat="46.34729" lon="6.82051">
        <ele>1586</ele>
        <time>2015-03-06T09:09:52.390Z</time>
      </trkpt>
      <trkpt lat="46.34724" lon="6.82038">
        <ele>1588</ele>
        <time>2015-03-06T09:10:12.290Z</time>
      </trkpt>
      <trkpt lat="46.34721" lon="6.82023">
        <ele>1589</ele>
        <time>2015-03-06T09:10:24.290Z</time>
      </trkpt>
      <trkpt lat="46.34719" lon="6.82006">
        <ele>1591</ele>
        <time>2015-03-06T09:10:40.390Z</time>
      </trkpt>
      <trkpt lat="46.34719" lon="6.81991">
        <ele>1591</ele>
        <time>2015-03-06T09:10:52.390Z</time>
      </trkpt>
      <trkpt lat="46.34718" lon="6.81976">
        <ele>1591.6141767202</ele>
        <time>2015-03-06T09:11:16.490Z</time>
      </trkpt>
      <trkpt lat="46.34709" lon="6.81962">
        <ele>1586.6199936</ele>
        <time>2015-03-06T09:12:56.390Z</time>
      </trkpt>
      <trkpt lat="46.34715" lon="6.81951">
        <ele>1588.6199936</ele>
        <time>2015-03-06T09:13:12.390Z</time>
      </trkpt>
      <trkpt lat="46.34711" lon="6.8192">
        <ele>1590.54683</ele>
        <time>2015-03-06T09:16:42.210Z</time>
      </trkpt>
      <trkpt lat="46.3471" lon="6.81915">
        <ele>1586</ele>
        <time>2015-03-06T09:17:58.290Z</time>
      </trkpt>
      <trkpt lat="46.3472" lon="6.81905">
        <ele>1583</ele>
        <time>2015-03-06T09:20:38.290Z</time>
      </trkpt>
      <trkpt lat="46.34709" lon="6.81905">
        <ele>1594.7000064</ele>
        <time>2015-03-06T09:21:54.290Z</time>
      </trkpt>
      <trkpt lat="46.34718" lon="6.81919">
        <ele>1590.7000064</ele>
        <time>2015-03-06T09:22:26.290Z</time>
      </trkpt>
      <trkpt lat="46.34721" lon="6.81905">
        <ele>1587</ele>
        <time>2015-03-06T09:22:46.290Z</time>
      </trkpt>
      <trkpt lat="46.34711" lon="6.81891">
        <ele>1588</ele>
        <time>2015-03-06T09:23:06.290Z</time>
      </trkpt>
      <trkpt lat="46.34709" lon="6.81875">
        <ele>1589</ele>
        <time>2015-03-06T09:23:18.290Z</time>
      </trkpt>
      <trkpt lat="46.34708" lon="6.81858">
        <ele>1592</ele>
        <time>2015-03-06T09:23:26.290Z</time>
      </trkpt>
      <trkpt lat="46.34704" lon="6.81843">
        <ele>1593</ele>
        <time>2015-03-06T09:23:40.490Z</time>
      </trkpt>
      <trkpt lat="46.34701" lon="6.81828">
        <ele>1597</ele>
        <time>2015-03-06T09:23:56.290Z</time>
      </trkpt>
      <trkpt lat="46.34696" lon="6.81811">
        <ele>1598.2999936</ele>
        <time>2015-03-06T09:24:12.290Z</time>
      </trkpt>
      <trkpt lat="46.34691" lon="6.81795">
        <ele>1601</ele>
        <time>2015-03-06T09:24:28.290Z</time>
      </trkpt>
      <trkpt lat="46.34689" lon="6.81781">
        <ele>1600.2999936</ele>
        <time>2015-03-06T09:24:40.290Z</time>
      </trkpt>
      <trkpt lat="46.34683" lon="6.81769">
        <ele>1598.7000064</ele>
        <time>2015-03-06T09:24:52.290Z</time>
      </trkpt>
      <trkpt lat="46.34679" lon="6.81754">
        <ele>1595.7000064</ele>
        <time>2015-03-06T09:25:04.290Z</time>
      </trkpt>
      <trkpt lat="46.34668" lon="6.81752">
        <ele>1589.7000064</ele>
        <time>2015-03-06T09:25:28.290Z</time>
      </trkpt>
      <trkpt lat="46.3466" lon="6.81736">
        <ele>1596</ele>
        <time>2015-03-06T09:25:48.290Z</time>
      </trkpt>
      <trkpt lat="46.3465" lon="6.81727">
        <ele>1604</ele>
        <time>2015-03-06T09:26:24.290Z</time>
      </trkpt>
      <trkpt lat="46.34647" lon="6.81712">
        <ele>1605.2999936</ele>
        <time>2015-03-06T09:26:40.290Z</time>
      </trkpt>
      <trkpt lat="46.34639" lon="6.81698">
        <ele>1606.7000064</ele>
        <time>2015-03-06T09:26:52.290Z</time>
      </trkpt>
      <trkpt lat="46.34637" lon="6.81684">
        <ele>1603</ele>
        <time>2015-03-06T09:27:08.490Z</time>
      </trkpt>
      <trkpt lat="46.3463" lon="6.81672">
        <ele>1605</ele>
        <time>2015-03-06T09:27:20.290Z</time>
      </trkpt>
      <trkpt lat="46.34625" lon="6.81655">
        <ele>1605</ele>
        <time>2015-03-06T09:27:36.290Z</time>
      </trkpt>
      <trkpt lat="46.34618" lon="6.81643">
        <ele>1601</ele>
        <time>2015-03-06T09:27:56.290Z</time>
      </trkpt>
      <trkpt lat="46.34612" lon="6.81632">
        <ele>1606</ele>
        <time>2015-03-06T09:28:12.290Z</time>
      </trkpt>
      <trkpt lat="46.34604" lon="6.81622">
        <ele>1610</ele>
        <time>2015-03-06T09:28:24.290Z</time>
      </trkpt>
      <trkpt lat="46.34594" lon="6.81623">
        <ele>1616</ele>
        <time>2015-03-06T09:28:44.290Z</time>
      </trkpt>
      <trkpt lat="46.34584" lon="6.81618">
        <ele>1620</ele>
        <time>2015-03-06T09:28:52.290Z</time>
      </trkpt>
      <trkpt lat="46.34576" lon="6.81609">
        <ele>1617.7000064</ele>
        <time>2015-03-06T09:29:12.290Z</time>
      </trkpt>
      <trkpt lat="46.34565" lon="6.81605">
        <ele>1618</ele>
        <time>2015-03-06T09:29:24.290Z</time>
      </trkpt>
      <trkpt lat="46.34553" lon="6.81601">
        <ele>1616</ele>
        <time>2015-03-06T09:29:36.300Z</time>
      </trkpt>
      <trkpt lat="46.34541" lon="6.81599">
        <ele>1614</ele>
        <time>2015-03-06T09:30:16.490Z</time>
      </trkpt>
      <trkpt lat="46.34531" lon="6.81594">
        <ele>1616.44</ele>
        <time>2015-03-06T09:30:28.290Z</time>
      </trkpt>
      <trkpt lat="46.34525" lon="6.81573">
        <ele>1620</ele>
        <time>2015-03-06T09:30:40.290Z</time>
      </trkpt>
      <trkpt lat="46.34527" lon="6.81557">
        <ele>1623.52</ele>
        <time>2015-03-06T09:30:52.490Z</time>
      </trkpt>
      <trkpt lat="46.34525" lon="6.81536">
        <ele>1625.28</ele>
        <time>2015-03-06T09:31:04.290Z</time>
      </trkpt>
      <trkpt lat="46.34523" lon="6.81517">
        <ele>1624.52</ele>
        <time>2015-03-06T09:31:16.490Z</time>
      </trkpt>
      <trkpt lat="46.34517" lon="6.81504">
        <ele>1622.52</ele>
        <time>2015-03-06T09:31:24.490Z</time>
      </trkpt>
      <trkpt lat="46.34521" lon="6.8149">
        <ele>1623</ele>
        <time>2015-03-06T09:31:40.290Z</time>
      </trkpt>
      <trkpt lat="46.34513" lon="6.81479">
        <ele>1622</ele>
        <time>2015-03-06T09:31:52.490Z</time>
      </trkpt>
      <trkpt lat="46.34509" lon="6.81496">
        <ele>1625</ele>
        <time>2015-03-06T09:32:28.290Z</time>
      </trkpt>
      <trkpt lat="46.34499" lon="6.81486">
        <ele>1628.2929251138</ele>
        <time>2015-03-06T09:32:44.290Z</time>
      </trkpt>
      <trkpt lat="46.34491" lon="6.81466">
        <ele>1630.4999936</ele>
        <time>2015-03-06T09:33:00.490Z</time>
      </trkpt>
      <trkpt lat="46.34486" lon="6.81451">
        <ele>1632</ele>
        <time>2015-03-06T09:33:16.490Z</time>
      </trkpt>
      <trkpt lat="46.34484" lon="6.81433">
        <ele>1628</ele>
        <time>2015-03-06T09:33:28.490Z</time>
      </trkpt>
      <trkpt lat="46.34478" lon="6.8142">
        <ele>1627.4999936</ele>
        <time>2015-03-06T09:33:40.490Z</time>
      </trkpt>
      <trkpt lat="46.34476" lon="6.81405">
        <ele>1623</ele>
        <time>2015-03-06T09:34:00.490Z</time>
      </trkpt>
      <trkpt lat="46.34471" lon="6.81389">
        <ele>1623</ele>
        <time>2015-03-06T09:34:12.490Z</time>
      </trkpt>
      <trkpt lat="46.34461" lon="6.81385">
        <ele>1623.4999936</ele>
        <time>2015-03-06T09:34:28.490Z</time>
      </trkpt>
      <trkpt lat="46.3446" lon="6.81368">
        <ele>1623.4999936</ele>
        <time>2015-03-06T09:34:40.490Z</time>
      </trkpt>
      <trkpt lat="46.34463" lon="6.81353">
        <ele>1624</ele>
        <time>2015-03-06T09:34:56.490Z</time>
      </trkpt>
      <trkpt lat="46.34462" lon="6.81337">
        <ele>1623.4999936</ele>
        <time>2015-03-06T09:35:04.490Z</time>
      </trkpt>
      <trkpt lat="46.34457" lon="6.81319">
        <ele>1630.5000064</ele>
        <time>2015-03-06T09:35:28.490Z</time>
      </trkpt>
      <trkpt lat="46.34449" lon="6.8131">
        <ele>1637.4999936</ele>
        <time>2015-03-06T09:35:44.490Z</time>
      </trkpt>
      <trkpt lat="46.34442" lon="6.81295">
        <ele>1645</ele>
        <time>2015-03-06T09:36:08.490Z</time>
      </trkpt>
      <trkpt lat="46.34433" lon="6.81282">
        <ele>1647</ele>
        <time>2015-03-06T09:36:24.490Z</time>
      </trkpt>
      <trkpt lat="46.34426" lon="6.81269">
        <ele>1649</ele>
        <time>2015-03-06T09:36:36.490Z</time>
      </trkpt>
      <trkpt lat="46.34427" lon="6.81254">
        <ele>1651</ele>
        <time>2015-03-06T09:36:56.490Z</time>
      </trkpt>
      <trkpt lat="46.3443" lon="6.81238">
        <ele>1655</ele>
        <time>2015-03-06T09:37:08.490Z</time>
      </trkpt>
      <trkpt lat="46.34435" lon="6.81221">
        <ele>1654</ele>
        <time>2015-03-06T09:37:40.500Z</time>
      </trkpt>
      <trkpt lat="46.34442" lon="6.81211">
        <ele>1656.4999936</ele>
        <time>2015-03-06T09:38:12.490Z</time>
      </trkpt>
      <trkpt lat="46.34437" lon="6.81198">
        <ele>1667</ele>
        <time>2015-03-06T09:38:40.490Z</time>
      </trkpt>
      <trkpt lat="46.34428" lon="6.81184">
        <ele>1670.4999936</ele>
        <time>2015-03-06T09:39:04.490Z</time>
      </trkpt>
      <trkpt lat="46.34427" lon="6.81169">
        <ele>1674</ele>
        <time>2015-03-06T09:39:16.490Z</time>
      </trkpt>
      <trkpt lat="46.34436" lon="6.81154">
        <ele>1678</ele>
        <time>2015-03-06T09:39:32.490Z</time>
      </trkpt>
      <trkpt lat="46.34439" lon="6.81139">
        <ele>1677</ele>
        <time>2015-03-06T09:39:40.490Z</time>
      </trkpt>
      <trkpt lat="46.34442" lon="6.81121">
        <ele>1675.5000064</ele>
        <time>2015-03-06T09:39:52.490Z</time>
      </trkpt>
      <trkpt lat="46.34451" lon="6.81113">
        <ele>1675.5050553372</ele>
        <time>2015-03-06T09:40:08.490Z</time>
      </trkpt>
      <trkpt lat="46.34452" lon="6.81097">
        <ele>1672.5000064</ele>
        <time>2015-03-06T09:40:28.490Z</time>
      </trkpt>
      <trkpt lat="46.34461" lon="6.81084">
        <ele>1679.4999936</ele>
        <time>2015-03-06T09:40:48.490Z</time>
      </trkpt>
      <trkpt lat="46.34466" lon="6.81063">
        <ele>1684.4901928796</ele>
        <time>2015-03-06T09:41:05.490Z</time>
      </trkpt>
      <trkpt lat="46.34471" lon="6.81056">
        <ele>1687.6</ele>
        <time>2015-03-06T09:41:13.590Z</time>
      </trkpt>
      <trkpt lat="46.34474" lon="6.81045">
        <ele>1689.6</ele>
        <time>2015-03-06T09:41:25.590Z</time>
      </trkpt>
      <trkpt lat="46.34484" lon="6.81044">
        <ele>1690.3900032</ele>
        <time>2015-03-06T09:41:44.600Z</time>
      </trkpt>
      <trkpt lat="46.34489" lon="6.81039">
        <ele>1684.4</ele>
        <time>2015-03-06T09:42:08.590Z</time>
      </trkpt>
      <trkpt lat="46.3449" lon="6.8103">
        <ele>1685</ele>
        <time>2015-03-06T09:42:16.590Z</time>
      </trkpt>
      <trkpt lat="46.34487" lon="6.81024">
        <ele>1685</ele>
        <time>2015-03-06T09:43:28.590Z</time>
      </trkpt>
      <trkpt lat="46.34488" lon="6.81016">
        <ele>1685.4</ele>
        <time>2015-03-06T09:43:40.590Z</time>
      </trkpt>
      <trkpt lat="46.34488" lon="6.81004">
        <ele>1686</ele>
        <time>2015-03-06T09:43:48.590Z</time>
      </trkpt>
      <trkpt lat="46.34487" lon="6.80991">
        <ele>1686</ele>
        <time>2015-03-06T09:43:56.590Z</time>
      </trkpt>
      <trkpt lat="46.34487" lon="6.80979">
        <ele>1687</ele>
        <time>2015-03-06T09:44:04.590Z</time>
      </trkpt>
      <trkpt lat="46.34488" lon="6.80969">
        <ele>1687</ele>
        <time>2015-03-06T09:44:12.490Z</time>
      </trkpt>
      <trkpt lat="46.34489" lon="6.80961">
        <ele>1689</ele>
        <time>2015-03-06T09:44:20.490Z</time>
      </trkpt>
      <trkpt lat="46.3449" lon="6.8095">
        <ele>1691</ele>
        <time>2015-03-06T09:44:32.490Z</time>
      </trkpt>
      <trkpt lat="46.34494" lon="6.80941">
        <ele>1693</ele>
        <time>2015-03-06T09:44:40.490Z</time>
      </trkpt>
      <trkpt lat="46.34498" lon="6.80932">
        <ele>1696</ele>
        <time>2015-03-06T09:44:48.490Z</time>
      </trkpt>
      <trkpt lat="46.34499" lon="6.80924">
        <ele>1696.4999936</ele>
        <time>2015-03-06T09:44:56.490Z</time>
      </trkpt>
      <trkpt lat="46.34499" lon="6.80915">
        <ele>1697</ele>
        <time>2015-03-06T09:45:04.490Z</time>
      </trkpt>
      <trkpt lat="46.34495" lon="6.80902">
        <ele>1697.4999936</ele>
        <time>2015-03-06T09:45:16.490Z</time>
      </trkpt>
      <trkpt lat="46.34497" lon="6.80885">
        <ele>1699</ele>
        <time>2015-03-06T09:45:28.490Z</time>
      </trkpt>
      <trkpt lat="46.34502" lon="6.80868">
        <ele>1700</ele>
        <time>2015-03-06T09:45:40.490Z</time>
      </trkpt>
      <trkpt lat="46.34501" lon="6.80848">
        <ele>1700.4999936</ele>
        <time>2015-03-06T09:45:52.490Z</time>
      </trkpt>
      <trkpt lat="46.34502" lon="6.80834">
        <ele>1702.2</ele>
        <time>2015-03-06T09:46:08.390Z</time>
      </trkpt>
      <trkpt lat="46.34507" lon="6.80818">
        <ele>1705.4</ele>
        <time>2015-03-06T09:46:32.390Z</time>
      </trkpt>
      <trkpt lat="46.34509" lon="6.80804">
        <ele>1713</ele>
        <time>2015-03-06T09:46:52.490Z</time>
      </trkpt>
      <trkpt lat="46.34513" lon="6.8079">
        <ele>1714</ele>
        <time>2015-03-06T09:47:12.390Z</time>
      </trkpt>
      <trkpt lat="46.34516" lon="6.80773">
        <ele>1714.4</ele>
        <time>2015-03-06T09:47:32.390Z</time>
      </trkpt>
      <trkpt lat="46.34519" lon="6.80758">
        <ele>1717</ele>
        <time>2015-03-06T09:47:48.390Z</time>
      </trkpt>
      <trkpt lat="46.34518" lon="6.80744">
        <ele>1725</ele>
        <time>2015-03-06T09:48:36.490Z</time>
      </trkpt>
      <trkpt lat="46.34525" lon="6.80731">
        <ele>1728.4</ele>
        <time>2015-03-06T09:49:16.390Z</time>
      </trkpt>
      <trkpt lat="46.34532" lon="6.80719">
        <ele>1727</ele>
        <time>2015-03-06T09:49:28.290Z</time>
      </trkpt>
      <trkpt lat="46.34536" lon="6.80701">
        <ele>1726</ele>
        <time>2015-03-06T09:49:40.290Z</time>
      </trkpt>
      <trkpt lat="46.34543" lon="6.80692">
        <ele>1727</ele>
        <time>2015-03-06T09:49:56.390Z</time>
      </trkpt>
      <trkpt lat="46.34552" lon="6.80684">
        <ele>1729.4999936</ele>
        <time>2015-03-06T09:50:12.490Z</time>
      </trkpt>
      <trkpt lat="46.34559" lon="6.80675">
        <ele>1736.4</ele>
        <time>2015-03-06T09:50:28.390Z</time>
      </trkpt>
      <trkpt lat="46.34564" lon="6.80657">
        <ele>1738</ele>
        <time>2015-03-06T09:50:44.290Z</time>
      </trkpt>
      <trkpt lat="46.34559" lon="6.80641">
        <ele>1742</ele>
        <time>2015-03-06T09:51:12.490Z</time>
      </trkpt>
      <trkpt lat="46.34566" lon="6.80632">
        <ele>1743</ele>
        <time>2015-03-06T09:51:24.500Z</time>
      </trkpt>
      <trkpt lat="46.34567" lon="6.80616">
        <ele>1743</ele>
        <time>2015-03-06T09:51:44.390Z</time>
      </trkpt>
      <trkpt lat="46.34571" lon="6.80601">
        <ele>1744</ele>
        <time>2015-03-06T09:52:00.590Z</time>
      </trkpt>
      <trkpt lat="46.34577" lon="6.80589">
        <ele>1743.46875</ele>
        <time>2015-03-06T09:52:12.590Z</time>
      </trkpt>
      <trkpt lat="46.34581" lon="6.80573">
        <ele>1749.4999936</ele>
        <time>2015-03-06T09:52:28.490Z</time>
      </trkpt>
      <trkpt lat="46.34576" lon="6.80561">
        <ele>1763</ele>
        <time>2015-03-06T09:55:32.590Z</time>
      </trkpt>
      <trkpt lat="46.34579" lon="6.80575">
        <ele>1744</ele>
        <time>2015-03-06T09:57:28.290Z</time>
      </trkpt>
      <trkpt lat="46.34587" lon="6.80567">
        <ele>1749</ele>
        <time>2015-03-06T10:00:28.290Z</time>
      </trkpt>
      <trkpt lat="46.3459" lon="6.80581">
        <ele>1750</ele>
        <time>2015-03-06T10:00:56.590Z</time>
      </trkpt>
      <trkpt lat="46.34578" lon="6.8058">
        <ele>1760.2999936</ele>
        <time>2015-03-06T10:01:48.290Z</time>
      </trkpt>
      <trkpt lat="46.34577" lon="6.80564">
        <ele>1762</ele>
        <time>2015-03-06T10:03:24.290Z</time>
      </trkpt>
      <trkpt lat="46.34579" lon="6.80581">
        <ele>1758</ele>
        <time>2015-03-06T10:04:32.590Z</time>
      </trkpt>
      <trkpt lat="46.3457" lon="6.8057">
        <ele>1758</ele>
        <time>2015-03-06T10:07:00.290Z</time>
      </trkpt>
      <trkpt lat="46.3458" lon="6.80573">
        <ele>1758</ele>
        <time>2015-03-06T10:09:23.390Z</time>
      </trkpt>
      <trkpt lat="46.3457" lon="6.80577">
        <ele>1765.6</ele>
        <time>2015-03-06T10:11:19.390Z</time>
      </trkpt>
      <trkpt lat="46.34579" lon="6.80567">
        <ele>1761</ele>
        <time>2015-03-06T10:12:07.400Z</time>
      </trkpt>
      <trkpt lat="46.34585" lon="6.80578">
        <ele>1756</ele>
        <time>2015-03-06T10:12:59.390Z</time>
      </trkpt>
      <trkpt lat="46.34575" lon="6.80574">
        <ele>1754.4</ele>
        <time>2015-03-06T10:13:23.390Z</time>
      </trkpt>
      <trkpt lat="46.34581" lon="6.80589">
        <ele>1757</ele>
        <time>2015-03-06T10:15:31.390Z</time>
      </trkpt>
      <trkpt lat="46.34583" lon="6.80572">
        <ele>1753</ele>
        <time>2015-03-06T10:16:03.390Z</time>
      </trkpt>
      <trkpt lat="46.34589" lon="6.8056">
        <ele>1760.4</ele>
        <time>2015-03-06T10:18:12.390Z</time>
      </trkpt>
      <trkpt lat="46.34578" lon="6.80564">
        <ele>1768</ele>
        <time>2015-03-06T10:19:12.390Z</time>
      </trkpt>
      <trkpt lat="46.34579" lon="6.80549">
        <ele>1764.4</ele>
        <time>2015-03-06T10:21:32.390Z</time>
      </trkpt>
      <trkpt lat="46.34577" lon="6.80535">
        <ele>1766</ele>
        <time>2015-03-06T10:21:44.390Z</time>
      </trkpt>
      <trkpt lat="46.34581" lon="6.80521">
        <ele>1766</ele>
        <time>2015-03-06T10:21:56.390Z</time>
      </trkpt>
      <trkpt lat="46.34582" lon="6.805">
        <ele>1765</ele>
        <time>2015-03-06T10:22:08.390Z</time>
      </trkpt>
      <trkpt lat="46.34591" lon="6.80482">
        <ele>1762</ele>
        <time>2015-03-06T10:22:20.390Z</time>
      </trkpt>
      <trkpt lat="46.34601" lon="6.80468">
        <ele>1761</ele>
        <time>2015-03-06T10:22:36.390Z</time>
      </trkpt>
      <trkpt lat="46.34598" lon="6.80454">
        <ele>1759</ele>
        <time>2015-03-06T10:22:52.390Z</time>
      </trkpt>
      <trkpt lat="46.346" lon="6.80439">
        <ele>1763</ele>
        <time>2015-03-06T10:23:24.390Z</time>
      </trkpt>
      <trkpt lat="46.34602" lon="6.80425">
        <ele>1766.6</ele>
        <time>2015-03-06T10:23:36.390Z</time>
      </trkpt>
      <trkpt lat="46.34603" lon="6.80405">
        <ele>1771.4</ele>
        <time>2015-03-06T10:23:56.390Z</time>
      </trkpt>
      <trkpt lat="46.34602" lon="6.80388">
        <ele>1774</ele>
        <time>2015-03-06T10:24:12.390Z</time>
      </trkpt>
      <trkpt lat="46.34606" lon="6.80373">
        <ele>1772.6</ele>
        <time>2015-03-06T10:24:28.390Z</time>
      </trkpt>
      <trkpt lat="46.34608" lon="6.80354">
        <ele>1769.6</ele>
        <time>2015-03-06T10:24:40.590Z</time>
      </trkpt>
      <trkpt lat="46.34602" lon="6.80348">
        <ele>1771.6</ele>
        <time>2015-03-06T10:24:48.590Z</time>
      </trkpt>
      <trkpt lat="46.346" lon="6.80331">
        <ele>1772</ele>
        <time>2015-03-06T10:25:04.390Z</time>
      </trkpt>
      <trkpt lat="46.34597" lon="6.80317">
        <ele>1774</ele>
        <time>2015-03-06T10:25:16.390Z</time>
      </trkpt>
      <trkpt lat="46.34596" lon="6.80301">
        <ele>1783</ele>
        <time>2015-03-06T10:25:32.390Z</time>
      </trkpt>
      <trkpt lat="46.34598" lon="6.80283">
        <ele>1789</ele>
        <time>2015-03-06T10:25:52.390Z</time>
      </trkpt>
      <trkpt lat="46.34595" lon="6.80269">
        <ele>1791.3960408587</ele>
        <time>2015-03-06T10:26:04.390Z</time>
      </trkpt>
      <trkpt lat="46.34589" lon="6.80252">
        <ele>1795.6</ele>
        <time>2015-03-06T10:26:44.390Z</time>
      </trkpt>
      <trkpt lat="46.34587" lon="6.80237">
        <ele>1791</ele>
        <time>2015-03-06T10:27:00.390Z</time>
      </trkpt>
      <trkpt lat="46.34578" lon="6.80229">
        <ele>1789</ele>
        <time>2015-03-06T10:27:20.390Z</time>
      </trkpt>
      <trkpt lat="46.34568" lon="6.80219">
        <ele>1790</ele>
        <time>2015-03-06T10:27:36.390Z</time>
      </trkpt>
      <trkpt lat="46.34571" lon="6.80202">
        <ele>1791</ele>
        <time>2015-03-06T10:28:04.390Z</time>
      </trkpt>
      <trkpt lat="46.34559" lon="6.8019">
        <ele>1798</ele>
        <time>2015-03-06T10:28:32.390Z</time>
      </trkpt>
      <trkpt lat="46.34556" lon="6.80176">
        <ele>1801</ele>
        <time>2015-03-06T10:28:52.390Z</time>
      </trkpt>
      <trkpt lat="46.34545" lon="6.80165">
        <ele>1801</ele>
        <time>2015-03-06T10:29:20.390Z</time>
      </trkpt>
      <trkpt lat="46.34531" lon="6.80159">
        <ele>1805</ele>
        <time>2015-03-06T10:30:04.390Z</time>
      </trkpt>
      <trkpt lat="46.34525" lon="6.80142">
        <ele>1806</ele>
        <time>2015-03-06T10:30:16.390Z</time>
      </trkpt>
      <trkpt lat="46.34516" lon="6.80132">
        <ele>1807</ele>
        <time>2015-03-06T10:30:28.390Z</time>
      </trkpt>
      <trkpt lat="46.3451" lon="6.8011">
        <ele>1809</ele>
        <time>2015-03-06T10:32:20.390Z</time>
      </trkpt>
      <trkpt lat="46.34505" lon="6.80096">
        <ele>1811</ele>
        <time>2015-03-06T10:32:28.390Z</time>
      </trkpt>
      <trkpt lat="46.34501" lon="6.80083">
        <ele>1814.6</ele>
        <time>2015-03-06T10:32:44.390Z</time>
      </trkpt>
      <trkpt lat="46.34489" lon="6.80076">
        <ele>1814</ele>
        <time>2015-03-06T10:32:52.390Z</time>
      </trkpt>
      <trkpt lat="46.3448" lon="6.8007">
        <ele>1817</ele>
        <time>2015-03-06T10:33:04.390Z</time>
      </trkpt>
      <trkpt lat="46.3447" lon="6.80062">
        <ele>1816.6</ele>
        <time>2015-03-06T10:33:16.390Z</time>
      </trkpt>
      <trkpt lat="46.3446" lon="6.80062">
        <ele>1814</ele>
        <time>2015-03-06T10:33:44.390Z</time>
      </trkpt>
      <trkpt lat="46.34448" lon="6.80056">
        <ele>1814</ele>
        <time>2015-03-06T10:34:20.390Z</time>
      </trkpt>
      <trkpt lat="46.3444" lon="6.80042">
        <ele>1814</ele>
        <time>2015-03-06T10:34:32.390Z</time>
      </trkpt>
      <trkpt lat="46.34433" lon="6.80033">
        <ele>1814</ele>
        <time>2015-03-06T10:34:44.390Z</time>
      </trkpt>
      <trkpt lat="46.34426" lon="6.80019">
        <ele>1816</ele>
        <time>2015-03-06T10:35:00.590Z</time>
      </trkpt>
      <trkpt lat="46.34423" lon="6.80005">
        <ele>1816</ele>
        <time>2015-03-06T10:35:16.590Z</time>
      </trkpt>
      <trkpt lat="46.34415" lon="6.8">
        <ele>1818</ele>
        <time>2015-03-06T10:35:28.190Z</time>
      </trkpt>
      <trkpt lat="46.34405" lon="6.79998">
        <ele>1818</ele>
        <time>2015-03-06T10:35:48.190Z</time>
      </trkpt>
      <trkpt lat="46.34393" lon="6.8">
        <ele>1822</ele>
        <time>2015-03-06T10:36:00.190Z</time>
      </trkpt>
      <trkpt lat="46.34386" lon="6.79987">
        <ele>1818.2</ele>
        <time>2015-03-06T10:36:16.190Z</time>
      </trkpt>
      <trkpt lat="46.34396" lon="6.79982">
        <ele>1831.8</ele>
        <time>2015-03-06T10:36:44.790Z</time>
      </trkpt>
      <trkpt lat="46.34384" lon="6.79992">
        <ele>1847.8</ele>
        <time>2015-03-06T10:37:09.190Z</time>
      </trkpt>
      <trkpt lat="46.34383" lon="6.80008">
        <ele>1844</ele>
        <time>2015-03-06T10:37:29.590Z</time>
      </trkpt>
      <trkpt lat="46.34374" lon="6.80017">
        <ele>1844.8</ele>
        <time>2015-03-06T10:37:42.190Z</time>
      </trkpt>
      <trkpt lat="46.34365" lon="6.80024">
        <ele>1855.2</ele>
        <time>2015-03-06T10:37:58.190Z</time>
      </trkpt>
      <trkpt lat="46.34357" lon="6.80033">
        <ele>1848.4199936</ele>
        <time>2015-03-06T10:38:26.590Z</time>
      </trkpt>
      <trkpt lat="46.34351" lon="6.80047">
        <ele>1861.3800064</ele>
        <time>2015-03-06T10:39:03.390Z</time>
      </trkpt>
      <trkpt lat="46.34346" lon="6.8006">
        <ele>1859.8599808</ele>
        <time>2015-03-06T10:39:27.390Z</time>
      </trkpt>
      <trkpt lat="46.34338" lon="6.80074">
        <ele>1846.5800064</ele>
        <time>2015-03-06T10:40:53.590Z</time>
      </trkpt>
      <trkpt lat="46.34347" lon="6.80067">
        <ele>1855</ele>
        <time>2015-03-06T10:43:47.790Z</time>
      </trkpt>
      <trkpt lat="46.3434" lon="6.80078">
        <ele>1859</ele>
        <time>2015-03-06T10:44:32.790Z</time>
      </trkpt>
      <trkpt lat="46.34335" lon="6.8007">
        <ele>1851</ele>
        <time>2015-03-06T10:46:21.490Z</time>
      </trkpt>
      <trkpt lat="46.34333" lon="6.80078">
        <ele>1851</ele>
        <time>2015-03-06T10:46:41.490Z</time>
      </trkpt>
      <trkpt lat="46.3433" lon="6.80088">
        <ele>1851</ele>
        <time>2015-03-06T10:46:49.490Z</time>
      </trkpt>
      <trkpt lat="46.34328" lon="6.80097">
        <ele>1851</ele>
        <time>2015-03-06T10:47:01.490Z</time>
      </trkpt>
      <trkpt lat="46.34325" lon="6.80106">
        <ele>1852</ele>
        <time>2015-03-06T10:47:13.490Z</time>
      </trkpt>
      <trkpt lat="46.34323" lon="6.80115">
        <ele>1854</ele>
        <time>2015-03-06T10:47:25.490Z</time>
      </trkpt>
      <trkpt lat="46.3432" lon="6.80121">
        <ele>1855</ele>
        <time>2015-03-06T10:47:33.500Z</time>
      </trkpt>
      <trkpt lat="46.34317" lon="6.8013">
        <ele>1857</ele>
        <time>2015-03-06T10:47:45.490Z</time>
      </trkpt>
      <trkpt lat="46.34313" lon="6.80137">
        <ele>1858</ele>
        <time>2015-03-06T10:47:53.490Z</time>
      </trkpt>
      <trkpt lat="46.34311" lon="6.80143">
        <ele>1859.4999936</ele>
        <time>2015-03-06T10:48:01.490Z</time>
      </trkpt>
      <trkpt lat="46.34312" lon="6.80154">
        <ele>1861.4999936</ele>
        <time>2015-03-06T10:48:13.490Z</time>
      </trkpt>
      <trkpt lat="46.34311" lon="6.80163">
        <ele>1862</ele>
        <time>2015-03-06T10:48:21.490Z</time>
      </trkpt>
      <trkpt lat="46.34309" lon="6.80172">
        <ele>1863.5000064</ele>
        <time>2015-03-06T10:48:29.490Z</time>
      </trkpt>
      <trkpt lat="46.34304" lon="6.80177">
        <ele>1864</ele>
        <time>2015-03-06T10:48:41.490Z</time>
      </trkpt>
      <trkpt lat="46.34298" lon="6.80177">
        <ele>1866</ele>
        <time>2015-03-06T10:49:01.220Z</time>
      </trkpt>
      <trkpt lat="46.34287" lon="6.80177">
        <ele>1868</ele>
        <time>2015-03-06T10:49:29.590Z</time>
      </trkpt>
      <trkpt lat="46.34276" lon="6.80175">
        <ele>1877</ele>
        <time>2015-03-06T10:52:41.590Z</time>
      </trkpt>
      <trkpt lat="46.34282" lon="6.80188">
        <ele>1873.4</ele>
        <time>2015-03-06T10:52:53.590Z</time>
      </trkpt>
      <trkpt lat="46.34292" lon="6.80198">
        <ele>1871.6</ele>
        <time>2015-03-06T10:53:05.590Z</time>
      </trkpt>
      <trkpt lat="46.34289" lon="6.80214">
        <ele>1879</ele>
        <time>2015-03-06T10:53:17.590Z</time>
      </trkpt>
      <trkpt lat="46.34279" lon="6.80218">
        <ele>1881</ele>
        <time>2015-03-06T10:53:25.590Z</time>
      </trkpt>
      <trkpt lat="46.34269" lon="6.80215">
        <ele>1886</ele>
        <time>2015-03-06T10:53:53.590Z</time>
      </trkpt>
      <trkpt lat="46.34258" lon="6.80216">
        <ele>1886.6</ele>
        <time>2015-03-06T10:54:09.590Z</time>
      </trkpt>
      <trkpt lat="46.34247" lon="6.80221">
        <ele>1889</ele>
        <time>2015-03-06T10:54:25.590Z</time>
      </trkpt>
      <trkpt lat="46.3424" lon="6.8021">
        <ele>1885</ele>
        <time>2015-03-06T10:54:49.590Z</time>
      </trkpt>
      <trkpt lat="46.34228" lon="6.80229">
        <ele>1886.6</ele>
        <time>2015-03-06T10:55:21.590Z</time>
      </trkpt>
      <trkpt lat="46.34234" lon="6.80243">
        <ele>1888.6</ele>
        <time>2015-03-06T10:55:41.590Z</time>
      </trkpt>
      <trkpt lat="46.34241" lon="6.80253">
        <ele>1895</ele>
        <time>2015-03-06T10:55:57.590Z</time>
      </trkpt>
      <trkpt lat="46.34238" lon="6.80266">
        <ele>1905.5800064</ele>
        <time>2015-03-06T10:56:37.590Z</time>
      </trkpt>
      <trkpt lat="46.34228" lon="6.80262">
        <ele>1906.4199936</ele>
        <time>2015-03-06T10:57:25.590Z</time>
      </trkpt>
      <trkpt lat="46.34216" lon="6.80261">
        <ele>1900.4199936</ele>
        <time>2015-03-06T10:57:45.590Z</time>
      </trkpt>
      <trkpt lat="46.34207" lon="6.80271">
        <ele>1902</ele>
        <time>2015-03-06T10:58:05.590Z</time>
      </trkpt>
      <trkpt lat="46.34201" lon="6.80282">
        <ele>1902.5800064</ele>
        <time>2015-03-06T10:58:21.590Z</time>
      </trkpt>
      <trkpt lat="46.34192" lon="6.80295">
        <ele>1907</ele>
        <time>2015-03-06T10:58:29.590Z</time>
      </trkpt>
      <trkpt lat="46.34188" lon="6.80309">
        <ele>1912.5800064</ele>
        <time>2015-03-06T10:58:49.590Z</time>
      </trkpt>
      <trkpt lat="46.34184" lon="6.80323">
        <ele>1914</ele>
        <time>2015-03-06T10:59:01.590Z</time>
      </trkpt>
      <trkpt lat="46.34173" lon="6.80332">
        <ele>1915</ele>
        <time>2015-03-06T10:59:29.590Z</time>
      </trkpt>
      <trkpt lat="46.34159" lon="6.8033">
        <ele>1924</ele>
        <time>2015-03-06T11:00:33.590Z</time>
      </trkpt>
      <trkpt lat="46.34152" lon="6.80317">
        <ele>1920.4</ele>
        <time>2015-03-06T11:00:53.590Z</time>
      </trkpt>
      <trkpt lat="46.34146" lon="6.803">
        <ele>1925</ele>
        <time>2015-03-06T11:01:13.590Z</time>
      </trkpt>
      <trkpt lat="46.34138" lon="6.80289">
        <ele>1924</ele>
        <time>2015-03-06T11:01:21.590Z</time>
      </trkpt>
      <trkpt lat="46.34131" lon="6.80274">
        <ele>1922</ele>
        <time>2015-03-06T11:01:33.490Z</time>
      </trkpt>
      <trkpt lat="46.34121" lon="6.80272">
        <ele>1922</ele>
        <time>2015-03-06T11:01:41.490Z</time>
      </trkpt>
      <trkpt lat="46.34113" lon="6.80262">
        <ele>1923</ele>
        <time>2015-03-06T11:02:01.490Z</time>
      </trkpt>
      <trkpt lat="46.34116" lon="6.80245">
        <ele>1929.6</ele>
        <time>2015-03-06T11:02:17.590Z</time>
      </trkpt>
      <trkpt lat="46.34109" lon="6.8023">
        <ele>1932</ele>
        <time>2015-03-06T11:02:29.590Z</time>
      </trkpt>
      <trkpt lat="46.34104" lon="6.80218">
        <ele>1943</ele>
        <time>2015-03-06T11:03:01.490Z</time>
      </trkpt>
      <trkpt lat="46.34114" lon="6.80215">
        <ele>1942.4</ele>
        <time>2015-03-06T11:03:49.590Z</time>
      </trkpt>
      <trkpt lat="46.34104" lon="6.8021">
        <ele>1939</ele>
        <time>2015-03-06T11:04:13.590Z</time>
      </trkpt>
      <trkpt lat="46.34111" lon="6.80198">
        <ele>1938</ele>
        <time>2015-03-06T11:04:37.490Z</time>
      </trkpt>
      <trkpt lat="46.341" lon="6.80192">
        <ele>1938.5000064</ele>
        <time>2015-03-06T11:04:53.490Z</time>
      </trkpt>
      <trkpt lat="46.34089" lon="6.80195">
        <ele>1939</ele>
        <time>2015-03-06T11:05:09.310Z</time>
      </trkpt>
      <trkpt lat="46.34095" lon="6.80183">
        <ele>1946.5049552632</ele>
        <time>2015-03-06T11:05:46.490Z</time>
      </trkpt>
      <trkpt lat="46.34085" lon="6.8018">
        <ele>1945</ele>
        <time>2015-03-06T11:09:58.490Z</time>
      </trkpt>
      <trkpt lat="46.34096" lon="6.80183">
        <ele>1948.5000064</ele>
        <time>2015-03-06T11:10:26.490Z</time>
      </trkpt>
      <trkpt lat="46.34085" lon="6.80185">
        <ele>1942.4999936</ele>
        <time>2015-03-06T11:11:58.490Z</time>
      </trkpt>
      <trkpt lat="46.34078" lon="6.80174">
        <ele>1946.4999936</ele>
        <time>2015-03-06T11:12:14.490Z</time>
      </trkpt>
      <trkpt lat="46.34068" lon="6.80168">
        <ele>1946.4999936</ele>
        <time>2015-03-06T11:12:30.490Z</time>
      </trkpt>
      <trkpt lat="46.3407" lon="6.80153">
        <ele>1949.5000064</ele>
        <time>2015-03-06T11:12:42.490Z</time>
      </trkpt>
      <trkpt lat="46.34068" lon="6.80135">
        <ele>1952</ele>
        <time>2015-03-06T11:12:58.490Z</time>
      </trkpt>
      <trkpt lat="46.34064" lon="6.80119">
        <ele>1955.4999936</ele>
        <time>2015-03-06T11:13:14.490Z</time>
      </trkpt>
      <trkpt lat="46.34059" lon="6.80105">
        <ele>1958</ele>
        <time>2015-03-06T11:13:30.490Z</time>
      </trkpt>
      <trkpt lat="46.34056" lon="6.80091">
        <ele>1959</ele>
        <time>2015-03-06T11:13:42.490Z</time>
      </trkpt>
      <trkpt lat="46.3405" lon="6.80074">
        <ele>1960</ele>
        <time>2015-03-06T11:13:58.490Z</time>
      </trkpt>
      <trkpt lat="46.34055" lon="6.80058">
        <ele>1960</ele>
        <time>2015-03-06T11:14:06.490Z</time>
      </trkpt>
      <trkpt lat="46.34048" lon="6.80047">
        <ele>1950.5000064</ele>
        <time>2015-03-06T11:15:30.490Z</time>
      </trkpt>
      <trkpt lat="46.34053" lon="6.80029">
        <ele>1963.4999936</ele>
        <time>2015-03-06T11:16:50.490Z</time>
      </trkpt>
      <trkpt lat="46.34051" lon="6.80013">
        <ele>1964</ele>
        <time>2015-03-06T11:17:06.490Z</time>
      </trkpt>
      <trkpt lat="46.34055" lon="6.79995">
        <ele>1963.4999936</ele>
        <time>2015-03-06T11:17:22.490Z</time>
      </trkpt>
      <trkpt lat="46.34043" lon="6.79989">
        <ele>1962.5000064</ele>
        <time>2015-03-06T11:17:42.490Z</time>
      </trkpt>
      <trkpt lat="46.34035" lon="6.79978">
        <ele>1962.4999936</ele>
        <time>2015-03-06T11:18:02.490Z</time>
      </trkpt>
      <trkpt lat="46.34031" lon="6.79964">
        <ele>1962</ele>
        <time>2015-03-06T11:18:22.490Z</time>
      </trkpt>
      <trkpt lat="46.34036" lon="6.79948">
        <ele>1968.4999936</ele>
        <time>2015-03-06T11:18:38.490Z</time>
      </trkpt>
      <trkpt lat="46.34039" lon="6.79933">
        <ele>1973</ele>
        <time>2015-03-06T11:18:50.490Z</time>
      </trkpt>
      <trkpt lat="46.34042" lon="6.79918">
        <ele>1977</ele>
        <time>2015-03-06T11:19:10.490Z</time>
      </trkpt>
      <trkpt lat="46.34045" lon="6.799">
        <ele>1984.4999936</ele>
        <time>2015-03-06T11:19:58.490Z</time>
      </trkpt>
      <trkpt lat="46.34035" lon="6.79896">
        <ele>1989.4999936</ele>
        <time>2015-03-06T11:20:06.490Z</time>
      </trkpt>
      <trkpt lat="46.3403" lon="6.79882">
        <ele>1992</ele>
        <time>2015-03-06T11:20:22.490Z</time>
      </trkpt>
      <trkpt lat="46.3403" lon="6.79864">
        <ele>1996</ele>
        <time>2015-03-06T11:20:42.490Z</time>
      </trkpt>
      <trkpt lat="46.34033" lon="6.79878">
        <ele>1993</ele>
        <time>2015-03-06T11:21:30.490Z</time>
      </trkpt>
      <trkpt lat="46.34026" lon="6.79866">
        <ele>1993</ele>
        <time>2015-03-06T11:21:46.490Z</time>
      </trkpt>
      <trkpt lat="46.34027" lon="6.7985">
        <ele>1994.4999936</ele>
        <time>2015-03-06T11:22:18.490Z</time>
      </trkpt>
      <trkpt lat="46.34019" lon="6.79837">
        <ele>1997</ele>
        <time>2015-03-06T11:22:26.490Z</time>
      </trkpt>
      <trkpt lat="46.34013" lon="6.79825">
        <ele>1996</ele>
        <time>2015-03-06T11:22:34.490Z</time>
      </trkpt>
      <trkpt lat="46.34003" lon="6.79812">
        <ele>1997</ele>
        <time>2015-03-06T11:22:46.490Z</time>
      </trkpt>
      <trkpt lat="46.34004" lon="6.79795">
        <ele>1999</ele>
        <time>2015-03-06T11:23:02.490Z</time>
      </trkpt>
      <trkpt lat="46.33995" lon="6.79787">
        <ele>1999.4999936</ele>
        <time>2015-03-06T11:23:18.490Z</time>
      </trkpt>
      <trkpt lat="46.33995" lon="6.79771">
        <ele>2005.4999936</ele>
        <time>2015-03-06T11:23:34.490Z</time>
      </trkpt>
      <trkpt lat="46.33993" lon="6.79756">
        <ele>2010</ele>
        <time>2015-03-06T11:23:54.490Z</time>
      </trkpt>
      <trkpt lat="46.33984" lon="6.79744">
        <ele>2017</ele>
        <time>2015-03-06T11:24:10.490Z</time>
      </trkpt>
      <trkpt lat="46.33982" lon="6.79726">
        <ele>2021</ele>
        <time>2015-03-06T11:24:26.490Z</time>
      </trkpt>
      <trkpt lat="46.33972" lon="6.79712">
        <ele>2016</ele>
        <time>2015-03-06T11:24:42.490Z</time>
      </trkpt>
      <trkpt lat="46.3396" lon="6.79701">
        <ele>2017.52</ele>
        <time>2015-03-06T11:24:58.490Z</time>
      </trkpt>
      <trkpt lat="46.33956" lon="6.79685">
        <ele>2016.48</ele>
        <time>2015-03-06T11:25:10.490Z</time>
      </trkpt>
      <trkpt lat="46.3395" lon="6.7967">
        <ele>2020.52</ele>
        <time>2015-03-06T11:25:30.490Z</time>
      </trkpt>
      <trkpt lat="46.33933" lon="6.79656">
        <ele>2021.52</ele>
        <time>2015-03-06T11:25:50.490Z</time>
      </trkpt>
      <trkpt lat="46.33936" lon="6.79643">
        <ele>2037.5000064</ele>
        <time>2015-03-06T11:30:18.490Z</time>
      </trkpt>
      <trkpt lat="46.33926" lon="6.79642">
        <ele>2041</ele>
        <time>2015-03-06T11:31:50.490Z</time>
      </trkpt>
      <trkpt lat="46.33915" lon="6.79645">
        <ele>2040</ele>
        <time>2015-03-06T11:32:18.490Z</time>
      </trkpt>
      <trkpt lat="46.3391" lon="6.79632">
        <ele>2044</ele>
        <time>2015-03-06T11:32:58.490Z</time>
      </trkpt>
      <trkpt lat="46.33911" lon="6.79616">
        <ele>2046</ele>
        <time>2015-03-06T11:33:18.490Z</time>
      </trkpt>
      <trkpt lat="46.33908" lon="6.79598">
        <ele>2051.4999936</ele>
        <time>2015-03-06T11:33:34.490Z</time>
      </trkpt>
      <trkpt lat="46.33906" lon="6.7958">
        <ele>2052.5000064</ele>
        <time>2015-03-06T11:33:54.490Z</time>
      </trkpt>
      <trkpt lat="46.33907" lon="6.79565">
        <ele>2053.4999936</ele>
        <time>2015-03-06T11:34:10.490Z</time>
      </trkpt>
      <trkpt lat="46.3391" lon="6.79551">
        <ele>2060.4999936</ele>
        <time>2015-03-06T11:34:38.490Z</time>
      </trkpt>
      <trkpt lat="46.33901" lon="6.79542">
        <ele>2064.4999936</ele>
        <time>2015-03-06T11:35:14.490Z</time>
      </trkpt>
      <trkpt lat="46.33893" lon="6.7953">
        <ele>2071.4999936</ele>
        <time>2015-03-06T11:35:34.490Z</time>
      </trkpt>
      <trkpt lat="46.33886" lon="6.79517">
        <ele>2078.5000064</ele>
        <time>2015-03-06T11:35:58.490Z</time>
      </trkpt>
      <trkpt lat="46.33877" lon="6.79513">
        <ele>2081</ele>
        <time>2015-03-06T11:36:14.490Z</time>
      </trkpt>
      <trkpt lat="46.33871" lon="6.79499">
        <ele>2082</ele>
        <time>2015-03-06T11:36:30.490Z</time>
      </trkpt>
      <trkpt lat="46.33859" lon="6.79494">
        <ele>2081</ele>
        <time>2015-03-06T11:36:50.490Z</time>
      </trkpt>
      <trkpt lat="46.3385" lon="6.79501">
        <ele>2085.4999936</ele>
        <time>2015-03-06T11:37:26.490Z</time>
      </trkpt>
      <trkpt lat="46.3386" lon="6.79502">
        <ele>2096.4999936</ele>
        <time>2015-03-06T11:38:34.490Z</time>
      </trkpt>
      <trkpt lat="46.33857" lon="6.79523">
        <ele>2093</ele>
        <time>2015-03-06T11:38:50.490Z</time>
      </trkpt>
      <trkpt lat="46.33856" lon="6.79506">
        <ele>2092.5000064</ele>
        <time>2015-03-06T11:39:06.490Z</time>
      </trkpt>
      <trkpt lat="46.33845" lon="6.79504">
        <ele>2079</ele>
        <time>2015-03-06T11:41:46.590Z</time>
      </trkpt>
      <trkpt lat="46.33836" lon="6.79497">
        <ele>2087.4</ele>
        <time>2015-03-06T11:47:38.590Z</time>
      </trkpt>
      <trkpt lat="46.33843" lon="6.79507">
        <ele>2083.4</ele>
        <time>2015-03-06T11:48:06.590Z</time>
      </trkpt>
      <trkpt lat="46.33837" lon="6.79501">
        <ele>2095.6999936</ele>
        <time>2015-03-06T11:49:21.690Z</time>
      </trkpt>
      <trkpt lat="46.33836" lon="6.79498">
        <ele>2093</ele>
        <time>2015-03-06T11:51:53.590Z</time>
      </trkpt>
      <trkpt lat="46.33834" lon="6.79499">
        <ele>2092</ele>
        <time>2015-03-06T11:52:41.590Z</time>
      </trkpt>
      <trkpt lat="46.3383" lon="6.79499">
        <ele>2092</ele>
        <time>2015-03-06T11:52:53.590Z</time>
      </trkpt>
      <trkpt lat="46.33826" lon="6.79499">
        <ele>2093</ele>
        <time>2015-03-06T11:53:01.310Z</time>
      </trkpt>
      <trkpt lat="46.33815" lon="6.79494">
        <ele>2094</ele>
        <time>2015-03-06T11:53:33.590Z</time>
      </trkpt>
      <trkpt lat="46.33809" lon="6.79505">
        <ele>2094</ele>
        <time>2015-03-06T11:53:53.590Z</time>
      </trkpt>
      <trkpt lat="46.33798" lon="6.79503">
        <ele>2092.4199936</ele>
        <time>2015-03-06T11:54:25.590Z</time>
      </trkpt>
      <trkpt lat="46.33791" lon="6.7949">
        <ele>2089.5800064</ele>
        <time>2015-03-06T11:55:17.590Z</time>
      </trkpt>
      <trkpt lat="46.3378" lon="6.7949">
        <ele>2093</ele>
        <time>2015-03-06T11:58:29.590Z</time>
      </trkpt>
      <trkpt lat="46.33773" lon="6.79479">
        <ele>2093.4</ele>
        <time>2015-03-06T11:58:45.590Z</time>
      </trkpt>
      <trkpt lat="46.33762" lon="6.79484">
        <ele>2093</ele>
        <time>2015-03-06T11:58:57.590Z</time>
      </trkpt>
      <trkpt lat="46.3375" lon="6.79478">
        <ele>2100</ele>
        <time>2015-03-06T11:59:33.590Z</time>
      </trkpt>
      <trkpt lat="46.3374" lon="6.79483">
        <ele>2102</ele>
        <time>2015-03-06T12:01:05.590Z</time>
      </trkpt>
      <trkpt lat="46.33734" lon="6.7947">
        <ele>2106.2</ele>
        <time>2015-03-06T12:01:53.590Z</time>
      </trkpt>
      <trkpt lat="46.33723" lon="6.79461">
        <ele>2110.4</ele>
        <time>2015-03-06T12:02:09.590Z</time>
      </trkpt>
      <trkpt lat="46.33713" lon="6.79454">
        <ele>2112</ele>
        <time>2015-03-06T12:02:21.590Z</time>
      </trkpt>
      <trkpt lat="46.33705" lon="6.79442">
        <ele>2116.4</ele>
        <time>2015-03-06T12:02:41.590Z</time>
      </trkpt>
      <trkpt lat="46.33695" lon="6.79438">
        <ele>2120</ele>
        <time>2015-03-06T12:03:01.590Z</time>
      </trkpt>
      <trkpt lat="46.33685" lon="6.79436">
        <ele>2130</ele>
        <time>2015-03-06T12:03:21.590Z</time>
      </trkpt>
      <trkpt lat="46.33676" lon="6.79441">
        <ele>2131.4</ele>
        <time>2015-03-06T12:03:37.590Z</time>
      </trkpt>
      <trkpt lat="46.33666" lon="6.79447">
        <ele>2134</ele>
        <time>2015-03-06T12:03:57.590Z</time>
      </trkpt>
      <trkpt lat="46.33654" lon="6.79446">
        <ele>2144</ele>
        <time>2015-03-06T12:04:21.590Z</time>
      </trkpt>
      <trkpt lat="46.33647" lon="6.79458">
        <ele>2151.6</ele>
        <time>2015-03-06T12:04:49.590Z</time>
      </trkpt>
      <trkpt lat="46.33649" lon="6.79475">
        <ele>2145</ele>
        <time>2015-03-06T12:05:37.590Z</time>
      </trkpt>
      <trkpt lat="46.33642" lon="6.79489">
        <ele>2151</ele>
        <time>2015-03-06T12:06:05.590Z</time>
      </trkpt>
      <trkpt lat="46.3364" lon="6.79506">
        <ele>2156</ele>
        <time>2015-03-06T12:08:17.590Z</time>
      </trkpt>
      <trkpt lat="46.33636" lon="6.79527">
        <ele>2155</ele>
        <time>2015-03-06T12:08:25.590Z</time>
      </trkpt>
      <trkpt lat="46.33625" lon="6.79556">
        <ele>2153</ele>
        <time>2015-03-06T12:09:13.590Z</time>
      </trkpt>
      <trkpt lat="46.33636" lon="6.79557">
        <ele>2151</ele>
        <time>2015-03-06T12:09:53.600Z</time>
      </trkpt>
      <trkpt lat="46.33636" lon="6.79572">
        <ele>2153</ele>
        <time>2015-03-06T12:10:29.590Z</time>
      </trkpt>
      <trkpt lat="46.33629" lon="6.79558">
        <ele>2145</ele>
        <time>2015-03-06T12:11:29.590Z</time>
      </trkpt>
      <trkpt lat="46.33623" lon="6.79578">
        <ele>2145</ele>
        <time>2015-03-06T12:23:13.590Z</time>
      </trkpt>
      <trkpt lat="46.33615" lon="6.79599">
        <ele>2143.4</ele>
        <time>2015-03-06T12:23:21.590Z</time>
      </trkpt>
      <trkpt lat="46.33587" lon="6.7963">
        <ele>2143</ele>
        <time>2015-03-06T12:23:29.590Z</time>
      </trkpt>
      <trkpt lat="46.33565" lon="6.79654">
        <ele>2147</ele>
        <time>2015-03-06T12:23:53.590Z</time>
      </trkpt>
      <trkpt lat="46.33534" lon="6.79691">
        <ele>2144.4</ele>
        <time>2015-03-06T12:24:01.590Z</time>
      </trkpt>
      <trkpt lat="46.33518" lon="6.79732">
        <ele>2113</ele>
        <time>2015-03-06T12:24:53.590Z</time>
      </trkpt>
      <trkpt lat="46.33518" lon="6.79747">
        <ele>2115</ele>
        <time>2015-03-06T12:25:01.590Z</time>
      </trkpt>
      <trkpt lat="46.33517" lon="6.79772">
        <ele>2115.4</ele>
        <time>2015-03-06T12:25:13.590Z</time>
      </trkpt>
      <trkpt lat="46.33495" lon="6.79837">
        <ele>2112</ele>
        <time>2015-03-06T12:25:21.590Z</time>
      </trkpt>
      <trkpt lat="46.3348" lon="6.79878">
        <ele>2109</ele>
        <time>2015-03-06T12:25:33.590Z</time>
      </trkpt>
      <trkpt lat="46.33482" lon="6.79893">
        <ele>2103.4</ele>
        <time>2015-03-06T12:25:53.590Z</time>
      </trkpt>
      <trkpt lat="46.33477" lon="6.7991">
        <ele>2099.4</ele>
        <time>2015-03-06T12:26:09.590Z</time>
      </trkpt>
      <trkpt lat="46.33443" lon="6.7995">
        <ele>2096.6</ele>
        <time>2015-03-06T12:26:17.590Z</time>
      </trkpt>
      <trkpt lat="46.33435" lon="6.79984">
        <ele>2097</ele>
        <time>2015-03-06T12:28:21.590Z</time>
      </trkpt>
      <trkpt lat="46.33426" lon="6.79995">
        <ele>2072.4</ele>
        <time>2015-03-06T12:34:48.790Z</time>
      </trkpt>
      <trkpt lat="46.33406" lon="6.80011">
        <ele>2072</ele>
        <time>2015-03-06T12:34:56.490Z</time>
      </trkpt>
      <trkpt lat="46.33385" lon="6.80033">
        <ele>2069.5000064</ele>
        <time>2015-03-06T12:35:16.490Z</time>
      </trkpt>
      <trkpt lat="46.33362" lon="6.80048">
        <ele>2068</ele>
        <time>2015-03-06T12:35:24.790Z</time>
      </trkpt>
      <trkpt lat="46.33336" lon="6.80045">
        <ele>2065</ele>
        <time>2015-03-06T12:35:36.790Z</time>
      </trkpt>
      <trkpt lat="46.33346" lon="6.80039">
        <ele>2059</ele>
        <time>2015-03-06T12:35:56.490Z</time>
      </trkpt>
      <trkpt lat="46.3335" lon="6.80057">
        <ele>2054.4</ele>
        <time>2015-03-06T12:36:08.790Z</time>
      </trkpt>
      <trkpt lat="46.33344" lon="6.80093">
        <ele>2051.5000064</ele>
        <time>2015-03-06T12:36:16.490Z</time>
      </trkpt>
      <trkpt lat="46.33338" lon="6.80105">
        <ele>2045</ele>
        <time>2015-03-06T12:36:32.790Z</time>
      </trkpt>
      <trkpt lat="46.33346" lon="6.80094">
        <ele>2035</ele>
        <time>2015-03-06T12:37:00.800Z</time>
      </trkpt>
      <trkpt lat="46.33353" lon="6.80106">
        <ele>2027</ele>
        <time>2015-03-06T12:37:29.790Z</time>
      </trkpt>
      <trkpt lat="46.3336" lon="6.80117">
        <ele>2009</ele>
        <time>2015-03-06T12:38:40.490Z</time>
      </trkpt>
      <trkpt lat="46.33352" lon="6.80102">
        <ele>2012.4678942177</ele>
        <time>2015-03-06T12:38:57.790Z</time>
      </trkpt>
      <trkpt lat="46.3336" lon="6.80119">
        <ele>1987</ele>
        <time>2015-03-06T12:39:13.590Z</time>
      </trkpt>
      <trkpt lat="46.33348" lon="6.80105">
        <ele>1994.6</ele>
        <time>2015-03-06T12:39:45.590Z</time>
      </trkpt>
      <trkpt lat="46.33361" lon="6.80117">
        <ele>1990.6</ele>
        <time>2015-03-06T12:40:29.590Z</time>
      </trkpt>
      <trkpt lat="46.3337" lon="6.80129">
        <ele>1987</ele>
        <time>2015-03-06T12:40:45.590Z</time>
      </trkpt>
      <trkpt lat="46.33362" lon="6.80115">
        <ele>1984.7920817175</ele>
        <time>2015-03-06T12:41:01.790Z</time>
      </trkpt>
      <trkpt lat="46.33352" lon="6.80104">
        <ele>1984</ele>
        <time>2015-03-06T12:41:29.490Z</time>
      </trkpt>
      <trkpt lat="46.33363" lon="6.80112">
        <ele>1976.4</ele>
        <time>2015-03-06T12:42:42.590Z</time>
      </trkpt>
      <trkpt lat="46.33354" lon="6.80111">
        <ele>2009</ele>
        <time>2015-03-06T12:43:40.490Z</time>
      </trkpt>
      <trkpt lat="46.33345" lon="6.80106">
        <ele>1994.9800192</ele>
        <time>2015-03-06T12:44:12.500Z</time>
      </trkpt>
      <trkpt lat="46.33343" lon="6.80091">
        <ele>1985.5148657897</ele>
        <time>2015-03-06T12:44:36.490Z</time>
      </trkpt>
      <trkpt lat="46.33339" lon="6.80077">
        <ele>1981</ele>
        <time>2015-03-06T12:45:16.490Z</time>
      </trkpt>
      <trkpt lat="46.33324" lon="6.80086">
        <ele>1980</ele>
        <time>2015-03-06T12:45:52.490Z</time>
      </trkpt>
      <trkpt lat="46.33299" lon="6.80093">
        <ele>1978.5000064</ele>
        <time>2015-03-06T12:46:00.490Z</time>
      </trkpt>
      <trkpt lat="46.3327" lon="6.80118">
        <ele>1977</ele>
        <time>2015-03-06T12:46:10.490Z</time>
      </trkpt>
      <trkpt lat="46.33261" lon="6.80129">
        <ele>1971.0000128</ele>
        <time>2015-03-06T12:46:30.490Z</time>
      </trkpt>
      <trkpt lat="46.33235" lon="6.8015">
        <ele>1955</ele>
        <time>2015-03-06T12:46:46.490Z</time>
      </trkpt>
      <trkpt lat="46.33224" lon="6.8019">
        <ele>1949</ele>
        <time>2015-03-06T12:46:58.490Z</time>
      </trkpt>
      <trkpt lat="46.33215" lon="6.80176">
        <ele>1938.0000128</ele>
        <time>2015-03-06T12:47:18.490Z</time>
      </trkpt>
      <trkpt lat="46.33203" lon="6.80176">
        <ele>1919.4040390981</ele>
        <time>2015-03-06T12:48:10.790Z</time>
      </trkpt>
      <trkpt lat="46.33207" lon="6.80174">
        <ele>1906</ele>
        <time>2015-03-06T12:48:26.790Z</time>
      </trkpt>
      <trkpt lat="46.33196" lon="6.80169">
        <ele>1901.2</ele>
        <time>2015-03-06T12:48:34.790Z</time>
      </trkpt>
      <trkpt lat="46.33166" lon="6.80179">
        <ele>1894.4</ele>
        <time>2015-03-06T12:48:42.790Z</time>
      </trkpt>
      <trkpt lat="46.33149" lon="6.80205">
        <ele>1887.6</ele>
        <time>2015-03-06T12:48:50.790Z</time>
      </trkpt>
      <trkpt lat="46.33135" lon="6.80213">
        <ele>1876.2</ele>
        <time>2015-03-06T12:48:58.790Z</time>
      </trkpt>
      <trkpt lat="46.33115" lon="6.80231">
        <ele>1864.4</ele>
        <time>2015-03-06T12:49:06.790Z</time>
      </trkpt>
      <trkpt lat="46.331" lon="6.80265">
        <ele>1853.5000064</ele>
        <time>2015-03-06T12:49:18.490Z</time>
      </trkpt>
      <trkpt lat="46.33086" lon="6.80287">
        <ele>1851.4040390981</ele>
        <time>2015-03-06T12:49:26.590Z</time>
      </trkpt>
      <trkpt lat="46.33067" lon="6.80309">
        <ele>1849</ele>
        <time>2015-03-06T12:49:34.690Z</time>
      </trkpt>
      <trkpt lat="46.33058" lon="6.80323">
        <ele>1846.3000064</ele>
        <time>2015-03-06T12:49:46.690Z</time>
      </trkpt>
      <trkpt lat="46.33046" lon="6.80358">
        <ele>1842.5000064</ele>
        <time>2015-03-06T12:49:54.490Z</time>
      </trkpt>
      <trkpt lat="46.33029" lon="6.8039">
        <ele>1835.8</ele>
        <time>2015-03-06T12:50:02.590Z</time>
      </trkpt>
      <trkpt lat="46.33011" lon="6.80417">
        <ele>1830.3069348338</ele>
        <time>2015-03-06T12:50:10.690Z</time>
      </trkpt>
      <trkpt lat="46.32982" lon="6.80435">
        <ele>1824</ele>
        <time>2015-03-06T12:50:18.590Z</time>
      </trkpt>
      <trkpt lat="46.32954" lon="6.8046">
        <ele>1815.4</ele>
        <time>2015-03-06T12:50:26.590Z</time>
      </trkpt>
      <trkpt lat="46.32924" lon="6.80485">
        <ele>1808.3000064</ele>
        <time>2015-03-06T12:50:34.690Z</time>
      </trkpt>
      <trkpt lat="46.32899" lon="6.80522">
        <ele>1802</ele>
        <time>2015-03-06T12:50:42.590Z</time>
      </trkpt>
      <trkpt lat="46.3287" lon="6.80556">
        <ele>1793.8282736864</ele>
        <time>2015-03-06T12:50:50.590Z</time>
      </trkpt>
      <trkpt lat="46.32843" lon="6.80598">
        <ele>1784</ele>
        <time>2015-03-06T12:50:58.690Z</time>
      </trkpt>
      <trkpt lat="46.32843" lon="6.80617">
        <ele>1772.4141368432</ele>
        <time>2015-03-06T12:51:06.590Z</time>
      </trkpt>
      <trkpt lat="46.32853" lon="6.8061">
        <ele>1764.8399872</ele>
        <time>2015-03-06T12:51:14.590Z</time>
      </trkpt>
      <trkpt lat="46.32848" lon="6.80597">
        <ele>1733.8282736864</ele>
        <time>2015-03-06T12:52:02.590Z</time>
      </trkpt>
      <trkpt lat="46.32867" lon="6.8059">
        <ele>1702.9000192</ele>
        <time>2015-03-06T12:53:05.690Z</time>
      </trkpt>
      <trkpt lat="46.32863" lon="6.80585">
        <ele>1702</ele>
        <time>2015-03-06T12:54:53.790Z</time>
      </trkpt>
      <trkpt lat="46.32858" lon="6.80602">
        <ele>1705</ele>
        <time>2015-03-06T12:57:54.690Z</time>
      </trkpt>
      <trkpt lat="46.32831" lon="6.80592">
        <ele>1698.3000064</ele>
        <time>2015-03-06T12:58:26.690Z</time>
      </trkpt>
      <trkpt lat="46.32786" lon="6.80568">
        <ele>1696</ele>
        <time>2015-03-06T12:58:34.690Z</time>
      </trkpt>
      <trkpt lat="46.32759" lon="6.80584">
        <ele>1694</ele>
        <time>2015-03-06T12:58:42.690Z</time>
      </trkpt>
      <trkpt lat="46.32742" lon="6.80618">
        <ele>1689.6000128</ele>
        <time>2015-03-06T12:58:50.690Z</time>
      </trkpt>
      <trkpt lat="46.32717" lon="6.80653">
        <ele>1688.3000064</ele>
        <time>2015-03-06T12:58:58.690Z</time>
      </trkpt>
      <trkpt lat="46.32694" lon="6.80628">
        <ele>1688</ele>
        <time>2015-03-06T12:59:06.690Z</time>
      </trkpt>
      <trkpt lat="46.32668" lon="6.80649">
        <ele>1686</ele>
        <time>2015-03-06T12:59:14.690Z</time>
      </trkpt>
      <trkpt lat="46.32669" lon="6.80666">
        <ele>1684.6138696677</ele>
        <time>2015-03-06T12:59:20.690Z</time>
      </trkpt>
      <trkpt lat="46.32674" lon="6.80685">
        <ele>1663.3131335333</ele>
        <time>2015-03-06T12:59:48.690Z</time>
      </trkpt>
      <trkpt lat="46.32681" lon="6.80675">
        <ele>1623.3030357882</ele>
        <time>2015-03-06T13:01:29.690Z</time>
      </trkpt>
      <trkpt lat="46.32674" lon="6.80699">
        <ele>1611.3000064</ele>
        <time>2015-03-06T13:02:13.690Z</time>
      </trkpt>
      <trkpt lat="46.32655" lon="6.80731">
        <ele>1610</ele>
        <time>2015-03-06T13:02:21.690Z</time>
      </trkpt>
      <trkpt lat="46.32628" lon="6.80782">
        <ele>1606.6999936</ele>
        <time>2015-03-06T13:02:29.690Z</time>
      </trkpt>
      <trkpt lat="46.32596" lon="6.80856">
        <ele>1598.3000064</ele>
        <time>2015-03-06T13:02:37.690Z</time>
      </trkpt>
      <trkpt lat="46.3258" lon="6.80931">
        <ele>1596.6930651662</ele>
        <time>2015-03-06T13:02:45.690Z</time>
      </trkpt>
      <trkpt lat="46.32575" lon="6.80996">
        <ele>1592.3000064</ele>
        <time>2015-03-06T13:02:53.690Z</time>
      </trkpt>
      <trkpt lat="46.32569" lon="6.81044">
        <ele>1586.3061269804</ele>
        <time>2015-03-06T13:03:01.690Z</time>
      </trkpt>
      <trkpt lat="46.32566" lon="6.81028">
        <ele>1541</ele>
        <time>2015-03-06T13:05:29.690Z</time>
      </trkpt>
      <trkpt lat="46.32578" lon="6.81029">
        <ele>1536</ele>
        <time>2015-03-06T13:06:33.690Z</time>
      </trkpt>
      <trkpt lat="46.32617" lon="6.81058">
        <ele>1536.3000064</ele>
        <time>2015-03-06T13:06:41.690Z</time>
      </trkpt>
      <trkpt lat="46.32661" lon="6.81053">
        <ele>1532.6000128</ele>
        <time>2015-03-06T13:06:49.690Z</time>
      </trkpt>
      <trkpt lat="46.3269" lon="6.81089">
        <ele>1528.3000064</ele>
        <time>2015-03-06T13:06:57.690Z</time>
      </trkpt>
      <trkpt lat="46.32698" lon="6.81098">
        <ele>1524</ele>
        <time>2015-03-06T13:07:21.690Z</time>
      </trkpt>
      <trkpt lat="46.32695" lon="6.81084">
        <ele>1510</ele>
        <time>2015-03-06T13:08:06.690Z</time>
      </trkpt>
      <trkpt lat="46.32702" lon="6.8111">
        <ele>1499</ele>
        <time>2015-03-06T13:10:41.690Z</time>
      </trkpt>
      <trkpt lat="46.32704" lon="6.81143">
        <ele>1497</ele>
        <time>2015-03-06T13:10:48.790Z</time>
      </trkpt>
      <trkpt lat="46.32695" lon="6.81137">
        <ele>1494.9357884353</ele>
        <time>2015-03-06T13:11:34.790Z</time>
      </trkpt>
      <trkpt lat="46.32706" lon="6.8113">
        <ele>1491.3000064</ele>
        <time>2015-03-06T13:12:22.690Z</time>
      </trkpt>
      <trkpt lat="46.32713" lon="6.81148">
        <ele>1484.6999936</ele>
        <time>2015-03-06T13:13:13.690Z</time>
      </trkpt>
      <trkpt lat="46.32709" lon="6.81192">
        <ele>1484.6999936</ele>
        <time>2015-03-06T13:13:21.690Z</time>
      </trkpt>
      <trkpt lat="46.32693" lon="6.81216">
        <ele>1483.3030357882</ele>
        <time>2015-03-06T13:13:29.690Z</time>
      </trkpt>
      <trkpt lat="46.32694" lon="6.81236">
        <ele>1482</ele>
        <time>2015-03-06T13:13:41.790Z</time>
      </trkpt>
      <trkpt lat="46.32703" lon="6.81229">
        <ele>1479</ele>
        <time>2015-03-06T13:14:33.690Z</time>
      </trkpt>
      <trkpt lat="46.32706" lon="6.81243">
        <ele>1471</ele>
        <time>2015-03-06T13:15:37.690Z</time>
      </trkpt>
      <trkpt lat="46.32718" lon="6.81286">
        <ele>1469</ele>
        <time>2015-03-06T13:15:45.690Z</time>
      </trkpt>
      <trkpt lat="46.3272" lon="6.81373">
        <ele>1468.6000128</ele>
        <time>2015-03-06T13:15:53.690Z</time>
      </trkpt>
      <trkpt lat="46.32738" lon="6.81466">
        <ele>1465.6999936</ele>
        <time>2015-03-06T13:16:01.690Z</time>
      </trkpt>
      <trkpt lat="46.32755" lon="6.81499">
        <ele>1461</ele>
        <time>2015-03-06T13:16:09.690Z</time>
      </trkpt>
      <trkpt lat="46.32744" lon="6.815">
        <ele>1450</ele>
        <time>2015-03-06T13:17:17.700Z</time>
      </trkpt>
      <trkpt lat="46.32753" lon="6.81492">
        <ele>1443.3999872</ele>
        <time>2015-03-06T13:19:11.690Z</time>
      </trkpt>
      <trkpt lat="46.32747" lon="6.81504">
        <ele>1435.6930651662</ele>
        <time>2015-03-06T13:19:47.690Z</time>
      </trkpt>
      <trkpt lat="46.32755" lon="6.81493">
        <ele>1429.6999936</ele>
        <time>2015-03-06T13:20:07.690Z</time>
      </trkpt>
      <trkpt lat="46.32745" lon="6.815">
        <ele>1433</ele>
        <time>2015-03-06T13:20:27.690Z</time>
      </trkpt>
      <trkpt lat="46.32739" lon="6.81515">
        <ele>1442.6999936</ele>
        <time>2015-03-06T13:21:15.690Z</time>
      </trkpt>
      <trkpt lat="46.32759" lon="6.81581">
        <ele>1440.6000128</ele>
        <time>2015-03-06T13:21:23.690Z</time>
      </trkpt>
      <trkpt lat="46.32782" lon="6.81629">
        <ele>1437.3000064</ele>
        <time>2015-03-06T13:21:31.690Z</time>
      </trkpt>
      <trkpt lat="46.32793" lon="6.81665">
        <ele>1426.3000064</ele>
        <time>2015-03-06T13:21:59.690Z</time>
      </trkpt>
      <trkpt lat="46.3283" lon="6.81743">
        <ele>1422.3000064</ele>
        <time>2015-03-06T13:22:07.690Z</time>
      </trkpt>
      <trkpt lat="46.32849" lon="6.81823">
        <ele>1414.6000128</ele>
        <time>2015-03-06T13:22:15.690Z</time>
      </trkpt>
      <trkpt lat="46.32848" lon="6.81894">
        <ele>1408.44532</ele>
        <time>2015-03-06T13:22:23.700Z</time>
      </trkpt>
      <trkpt lat="46.32844" lon="6.81943">
        <ele>1407.3000064</ele>
        <time>2015-03-06T13:22:31.690Z</time>
      </trkpt>
      <trkpt lat="46.32847" lon="6.81977">
        <ele>1403.3000064</ele>
        <time>2015-03-06T13:22:39.690Z</time>
      </trkpt>
      <trkpt lat="46.32855" lon="6.82028">
        <ele>1400.6969642118</ele>
        <time>2015-03-06T13:22:47.690Z</time>
      </trkpt>
      <trkpt lat="46.32868" lon="6.82069">
        <ele>1401</ele>
        <time>2015-03-06T13:22:55.690Z</time>
      </trkpt>
      <trkpt lat="46.32881" lon="6.82117">
        <ele>1397.3000064</ele>
        <time>2015-03-06T13:23:03.690Z</time>
      </trkpt>
      <trkpt lat="46.32902" lon="6.82152">
        <ele>1393.6999936</ele>
        <time>2015-03-06T13:23:11.690Z</time>
      </trkpt>
      <trkpt lat="46.32921" lon="6.82178">
        <ele>1384.3000064</ele>
        <time>2015-03-06T13:23:19.690Z</time>
      </trkpt>
      <trkpt lat="46.32933" lon="6.82214">
        <ele>1380.3000064</ele>
        <time>2015-03-06T13:23:27.690Z</time>
      </trkpt>
      <trkpt lat="46.32949" lon="6.82262">
        <ele>1382</ele>
        <time>2015-03-06T13:23:35.690Z</time>
      </trkpt>
      <trkpt lat="46.32961" lon="6.82332">
        <ele>1370.3000064</ele>
        <time>2015-03-06T13:23:43.690Z</time>
      </trkpt>
      <trkpt lat="46.32984" lon="6.82413">
        <ele>1365.3000064</ele>
        <time>2015-03-06T13:23:51.690Z</time>
      </trkpt>
      <trkpt lat="46.33007" lon="6.82487">
        <ele>1363</ele>
        <time>2015-03-06T13:23:59.690Z</time>
      </trkpt>
      <trkpt lat="46.33012" lon="6.82539">
        <ele>1351.3000064</ele>
        <time>2015-03-06T13:24:07.690Z</time>
      </trkpt>
      <trkpt lat="46.3303" lon="6.82621">
        <ele>1348.3000064</ele>
        <time>2015-03-06T13:24:15.690Z</time>
      </trkpt>
      <trkpt lat="46.33044" lon="6.82686">
        <ele>1348.6999936</ele>
        <time>2015-03-06T13:24:23.690Z</time>
      </trkpt>
      <trkpt lat="46.33053" lon="6.82728">
        <ele>1347.3000064</ele>
        <time>2015-03-06T13:24:31.690Z</time>
      </trkpt>
      <trkpt lat="46.33063" lon="6.82767">
        <ele>1344</ele>
        <time>2015-03-06T13:24:39.690Z</time>
      </trkpt>
      <trkpt lat="46.33057" lon="6.828">
        <ele>1339.2000256</ele>
        <time>2015-03-06T13:24:45.690Z</time>
      </trkpt>
      <trkpt lat="46.33061" lon="6.82841">
        <ele>1331.3000064</ele>
        <time>2015-03-06T13:24:53.690Z</time>
      </trkpt>
      <trkpt lat="46.3307" lon="6.82896">
        <ele>1325.3000064</ele>
        <time>2015-03-06T13:25:01.690Z</time>
      </trkpt>
      <trkpt lat="46.33082" lon="6.82946">
        <ele>1320.3000064</ele>
        <time>2015-03-06T13:25:09.690Z</time>
      </trkpt>
      <trkpt lat="46.33101" lon="6.8302">
        <ele>1316.5800064</ele>
        <time>2015-03-06T13:25:17.410Z</time>
      </trkpt>
      <trkpt lat="46.33111" lon="6.83082">
        <ele>1312</ele>
        <time>2015-03-06T13:25:25.690Z</time>
      </trkpt>
      <trkpt lat="46.33113" lon="6.83134">
        <ele>1310.3061269804</ele>
        <time>2015-03-06T13:25:33.690Z</time>
      </trkpt>
      <trkpt lat="46.33104" lon="6.83156">
        <ele>1306.3232354576</ele>
        <time>2015-03-06T13:25:49.690Z</time>
      </trkpt>
      <trkpt lat="46.3311" lon="6.83138">
        <ele>1290</ele>
        <time>2015-03-06T13:26:34.690Z</time>
      </trkpt>
      <trkpt lat="46.33102" lon="6.83142">
        <ele>1289</ele>
        <time>2015-03-06T13:26:51.470Z</time>
      </trkpt>
      <trkpt lat="46.33096" lon="6.83156">
        <ele>1288.3388412267</ele>
        <time>2015-03-06T13:26:58.790Z</time>
      </trkpt>
      <trkpt lat="46.33096" lon="6.83175">
        <ele>1288</ele>
        <time>2015-03-06T13:27:37.690Z</time>
      </trkpt>
      <trkpt lat="46.33101" lon="6.83188">
        <ele>1288</ele>
        <time>2015-03-06T13:27:45.690Z</time>
      </trkpt>
      <trkpt lat="46.33103" lon="6.83206">
        <ele>1288.6999936</ele>
        <time>2015-03-06T13:27:53.690Z</time>
      </trkpt>
      <trkpt lat="46.33102" lon="6.83228">
        <ele>1288.6999936</ele>
        <time>2015-03-06T13:28:01.690Z</time>
      </trkpt>
      <trkpt lat="46.33099" lon="6.83249">
        <ele>1289.2372894226</ele>
        <time>2015-03-06T13:28:07.890Z</time>
      </trkpt>
      <trkpt lat="46.33098" lon="6.83276">
        <ele>1291.3999872</ele>
        <time>2015-03-06T13:28:15.690Z</time>
      </trkpt>
      <trkpt lat="46.33093" lon="6.83291">
        <ele>1293.5254211548</ele>
        <time>2015-03-06T13:28:26.890Z</time>
      </trkpt>
      <trkpt lat="46.33093" lon="6.83313">
        <ele>1298.7627105774</ele>
        <time>2015-03-06T13:28:39.890Z</time>
      </trkpt>
      <trkpt lat="46.33097" lon="6.83362">
        <ele>1296.7999744</ele>
        <time>2015-03-06T13:28:47.690Z</time>
      </trkpt>
      <trkpt lat="46.33115" lon="6.83414">
        <ele>1285.6610259581</ele>
        <time>2015-03-06T13:28:54.890Z</time>
      </trkpt>
      <trkpt lat="46.33149" lon="6.83484">
        <ele>1273.6000128</ele>
        <time>2015-03-06T13:29:02.690Z</time>
      </trkpt>
      <trkpt lat="46.33166" lon="6.83565">
        <ele>1272.3000192</ele>
        <time>2015-03-06T13:29:10.890Z</time>
      </trkpt>
      <trkpt lat="46.33172" lon="6.83612">
        <ele>1261.2000128</ele>
        <time>2015-03-06T13:29:18.890Z</time>
      </trkpt>
      <trkpt lat="46.33187" lon="6.83697">
        <ele>1257.7671266504</ele>
        <time>2015-03-06T13:29:28.890Z</time>
      </trkpt>
      <trkpt lat="46.33214" lon="6.8376">
        <ele>1254.279273046</ele>
        <time>2015-03-06T13:29:37.790Z</time>
      </trkpt>
      <trkpt lat="46.33242" lon="6.83801">
        <ele>1244.1356048033</ele>
        <time>2015-03-06T13:29:44.890Z</time>
      </trkpt>
      <trkpt lat="46.33263" lon="6.83851">
        <ele>1228.1864471129</ele>
        <time>2015-03-06T13:29:52.890Z</time>
      </trkpt>
      <trkpt lat="46.33279" lon="6.83915">
        <ele>1207.9491576903</ele>
        <time>2015-03-06T13:30:01.890Z</time>
      </trkpt>
      <trkpt lat="46.33288" lon="6.83987">
        <ele>1198.4999893333</ele>
        <time>2015-03-06T13:30:09.890Z</time>
      </trkpt>
      <trkpt lat="46.33283" lon="6.84054">
        <ele>1197.6000128</ele>
        <time>2015-03-06T13:30:17.690Z</time>
      </trkpt>
      <trkpt lat="46.33275" lon="6.84124">
        <ele>1185.2184837794</ele>
        <time>2015-03-06T13:30:27.890Z</time>
      </trkpt>
      <trkpt lat="46.33307" lon="6.84161">
        <ele>1175.2000128</ele>
        <time>2015-03-06T13:30:35.890Z</time>
      </trkpt>
      <trkpt lat="46.33312" lon="6.84219">
        <ele>1167.71094</ele>
        <time>2015-03-06T13:30:43.900Z</time>
      </trkpt>
      <trkpt lat="46.33316" lon="6.84234">
        <ele>1174.6999936</ele>
        <time>2015-03-06T13:30:59.690Z</time>
      </trkpt>
      <trkpt lat="46.33325" lon="6.84225">
        <ele>1181.6999936</ele>
        <time>2015-03-06T13:31:31.690Z</time>
      </trkpt>
      <trkpt lat="46.33315" lon="6.84226">
        <ele>1174.3000064</ele>
        <time>2015-03-06T13:32:48.690Z</time>
      </trkpt>
      <trkpt lat="46.3331" lon="6.84274">
        <ele>1172.5426320437</ele>
        <time>2015-03-06T13:33:00.690Z</time>
      </trkpt>
      <trkpt lat="46.33321" lon="6.84323">
        <ele>1174</ele>
        <time>2015-03-06T13:33:07.890Z</time>
      </trkpt>
      <trkpt lat="46.33337" lon="6.84391">
        <ele>1173.4745788452</ele>
        <time>2015-03-06T13:33:16.890Z</time>
      </trkpt>
      <trkpt lat="46.33336" lon="6.84454">
        <ele>1165.9491576903</ele>
        <time>2015-03-06T13:33:24.890Z</time>
      </trkpt>
      <trkpt lat="46.33345" lon="6.84484">
        <ele>1157.9491576903</ele>
        <time>2015-03-06T13:33:30.890Z</time>
      </trkpt>
      <trkpt lat="46.3337" lon="6.84416">
        <ele>1150.2881317322</ele>
        <time>2015-03-06T13:33:39.890Z</time>
      </trkpt>
      <trkpt lat="46.33415" lon="6.84411">
        <ele>1144</ele>
        <time>2015-03-06T13:33:47.690Z</time>
      </trkpt>
      <trkpt lat="46.33421" lon="6.84444">
        <ele>1134.6000128</ele>
        <time>2015-03-06T13:34:15.690Z</time>
      </trkpt>
      <trkpt lat="46.33417" lon="6.84459">
        <ele>1130.1000064</ele>
        <time>2015-03-06T13:34:23.890Z</time>
      </trkpt>
      <trkpt lat="46.33424" lon="6.8447">
        <ele>1127</ele>
        <time>2015-03-06T13:34:36.690Z</time>
      </trkpt>
      <trkpt lat="46.33433" lon="6.84479">
        <ele>1127.6999936</ele>
        <time>2015-03-06T13:34:56.690Z</time>
      </trkpt>
      <trkpt lat="46.33422" lon="6.84468">
        <ele>1127.4874097818</ele>
        <time>2015-03-06T13:35:10.890Z</time>
      </trkpt>
      <trkpt lat="46.33432" lon="6.84476">
        <ele>1132</ele>
        <time>2015-03-06T13:35:54.690Z</time>
      </trkpt>
      <trkpt lat="46.33453" lon="6.84501">
        <ele>1130.3000064</ele>
        <time>2015-03-06T13:36:02.690Z</time>
      </trkpt>
      <trkpt lat="46.33475" lon="6.84524">
        <ele>1129.2372894226</ele>
        <time>2015-03-06T13:36:11.890Z</time>
      </trkpt>
      <trkpt lat="46.33484" lon="6.84529">
        <ele>1128</ele>
        <time>2015-03-06T13:36:16.890Z</time>
      </trkpt>
      <trkpt lat="46.33485" lon="6.84545">
        <ele>1126.2372894226</ele>
        <time>2015-03-06T13:36:29.890Z</time>
      </trkpt>
      <trkpt lat="46.33492" lon="6.84565">
        <ele>1128</ele>
        <time>2015-03-06T13:36:40.890Z</time>
      </trkpt>
      <trkpt lat="46.33511" lon="6.84602">
        <ele>1125.2727230413</ele>
        <time>2015-03-06T13:36:46.790Z</time>
      </trkpt>
      <trkpt lat="46.33535" lon="6.84593">
        <ele>1118.1864471129</ele>
        <time>2015-03-06T13:37:02.890Z</time>
      </trkpt>
      <trkpt lat="46.33534" lon="6.84616">
        <ele>1103.2000128</ele>
        <time>2015-03-06T13:37:10.890Z</time>
      </trkpt>
      <trkpt lat="46.33559" lon="6.84686">
        <ele>1090.5454460826</ele>
        <time>2015-03-06T13:37:19.790Z</time>
      </trkpt>
      <trkpt lat="46.33589" lon="6.84739">
        <ele>1067.9000192</ele>
        <time>2015-03-06T13:37:27.690Z</time>
      </trkpt>
      <trkpt lat="46.33634" lon="6.84763">
        <ele>1062.9000192</ele>
        <time>2015-03-06T13:37:35.690Z</time>
      </trkpt>
      <trkpt lat="46.33675" lon="6.84785">
        <ele>1063</ele>
        <time>2015-03-06T13:37:43.690Z</time>
      </trkpt>
      <trkpt lat="46.33696" lon="6.84801">
        <ele>1060</ele>
        <time>2015-03-06T13:37:49.890Z</time>
      </trkpt>
      <trkpt lat="46.33775" lon="6.8491">
        <ele>1068.9999610434</ele>
        <time>2015-03-06T13:42:13.890Z</time>
      </trkpt>
      <trkpt lat="46.33778" lon="6.84893">
        <ele>1072.2727230413</ele>
        <time>2015-03-06T13:43:29.790Z</time>
      </trkpt>
      <trkpt lat="46.33788" lon="6.84899">
        <ele>1058.8</ele>
        <time>2015-03-06T13:43:54.790Z</time>
      </trkpt>
      <trkpt lat="46.33799" lon="6.84903">
        <ele>1062.4</ele>
        <time>2015-03-06T13:44:39.790Z</time>
      </trkpt>
      <trkpt lat="46.33808" lon="6.84912">
        <ele>1066.2</ele>
        <time>2015-03-06T13:44:51.790Z</time>
      </trkpt>
      <trkpt lat="46.33816" lon="6.8492">
        <ele>1063.2</ele>
        <time>2015-03-06T13:45:03.790Z</time>
      </trkpt>
      <trkpt lat="46.33825" lon="6.84926">
        <ele>1071.3999872</ele>
        <time>2015-03-06T13:45:52.690Z</time>
      </trkpt>
      <trkpt lat="46.33825" lon="6.84908">
        <ele>1067</ele>
        <time>2015-03-06T13:46:17.790Z</time>
      </trkpt>
      <trkpt lat="46.33829" lon="6.84894">
        <ele>1073.4</ele>
        <time>2015-03-06T13:46:29.790Z</time>
      </trkpt>
      <trkpt lat="46.33836" lon="6.84864">
        <ele>1089.2</ele>
        <time>2015-03-06T13:46:41.790Z</time>
      </trkpt>
      <trkpt lat="46.33825" lon="6.8486">
        <ele>1089.4285714286</ele>
        <time>2015-03-06T13:47:17.790Z</time>
      </trkpt>
      <trkpt lat="46.33829" lon="6.84856">
        <ele>1080</ele>
        <time>2015-03-06T13:47:46.370Z</time>
      </trkpt>
    </trkseg>
  </trk>
</gpx>